Observation data for Coyanosa on 02/15/2018      Previous  Date  Next       Current Mesonet Observations  Soil Data  Daily Summary Page  Observations in Plain Language
KCO1 150600Z 10008KT 16/06 A3005 RMK A01 T01570058  RH  052%=      5-min Rain = 0
KCO1 150601Z 10008KT 16/06 A3005 RMK A01 T01560058  RH  052%=      5-min Rain = 0
KCO1 150602Z 10009KT 16/06 A3005 RMK A01 T01560058  RH  052%=      5-min Rain = 0
KCO1 150603Z 10009KT 16/06 A3005 RMK A01 T01550059  RH  053%=      5-min Rain = 0
KCO1 150604Z 09009KT 16/06 A3005 RMK A01 T01550059  RH  053%=      5-min Rain = 0
KCO1 150605Z 10009KT 16/06 A3005 RMK A01 T01550060  RH  053%=      5-min Rain = 0
KCO1 150606Z 10009KT 15/06 A3004 RMK A01 T01540060  RH  053%=      5-min Rain = 0
KCO1 150607Z 09009KT 15/06 A3004 RMK A01 T01540061  RH  054%=      5-min Rain = 0
KCO1 150608Z 10009KT 15/06 A3004 RMK A01 T01530061  RH  054%=      5-min Rain = 0
KCO1 150609Z 09009KT 15/06 A3004 RMK A01 T01530062  RH  054%=      5-min Rain = 0
KCO1 150610Z 10009KT 15/06 A3005 RMK A01 T01530062  RH  055%=      5-min Rain = 0
KCO1 150611Z 10009KT 15/06 A3005 RMK A01 T01530063  RH  055%=      5-min Rain = 0
KCO1 150612Z 10009KT 15/06 A3004 RMK A01 T01530063  RH  055%=      5-min Rain = 0
KCO1 150613Z 09009KT 15/06 A3004 RMK A01 T01530063  RH  055%=      5-min Rain = 0
KCO1 150614Z 10010KT 15/06 A3004 RMK A01 T01520063  RH  055%=      5-min Rain = 0
KCO1 150615Z 10010KT 15/06 A3004 RMK A01 T01520063  RH  056%=      5-min Rain = 0
KCO1 150616Z 10010KT 15/06 A3004 RMK A01 T01520064  RH  056%=      5-min Rain = 0
KCO1 150617Z 10009KT 15/07 A3004 RMK A01 T01520065  RH  056%=      5-min Rain = 0
KCO1 150618Z 10009KT 15/07 A3004 RMK A01 T01520065  RH  056%=      5-min Rain = 0
KCO1 150619Z 10009KT 15/07 A3004 RMK A01 T01520066  RH  057%=      5-min Rain = 0
KCO1 150620Z 10009KT 15/07 A3004 RMK A01 T01520067  RH  057%=      5-min Rain = 0
KCO1 150621Z 10009KT 15/07 A3004 RMK A01 T01520067  RH  057%=      5-min Rain = 0
KCO1 150622Z 10010KT 15/07 A3004 RMK A01 T01520068  RH  057%=      5-min Rain = 0
KCO1 150623Z 10009KT 15/07 A3004 RMK A01 T01520068  RH  057%=      5-min Rain = 0
KCO1 150624Z 10009KT 15/07 A3004 RMK A01 T01520068  RH  057%=      5-min Rain = 0
KCO1 150625Z 10010KT 15/07 A3004 RMK A01 T01520070  RH  058%=      5-min Rain = 0
KCO1 150626Z 10010KT 15/07 A3004 RMK A01 T01520070  RH  058%=      5-min Rain = 0
KCO1 150627Z 10010KT 15/07 A3004 RMK A01 T01520071  RH  058%=      5-min Rain = 0
KCO1 150628Z 10010KT 15/07 A3004 RMK A01 T01520071  RH  058%=      5-min Rain = 0
KCO1 150629Z 10009KT 15/07 A3004 RMK A01 T01520071  RH  058%=      5-min Rain = 0
KCO1 150630Z 10010KT 15/07 A3004 RMK A01 T01520071  RH  059%=      5-min Rain = 0
KCO1 150631Z 10010KT 15/07 A3004 RMK A01 T01510072  RH  059%=      5-min Rain = 0
KCO1 150632Z 11009KT 15/07 A3004 RMK A01 T01510072  RH  059%=      5-min Rain = 0
KCO1 150633Z 10009KT 15/07 A3003 RMK A01 T01500072  RH  059%=      5-min Rain = 0
KCO1 150634Z 11009KT 15/07 A3003 RMK A01 T01490072  RH  060%=      5-min Rain = 0
KCO1 150635Z 11010KT 15/07 A3003 RMK A01 T01490074  RH  061%=      5-min Rain = 0
KCO1 150636Z 10011KT 15/07 A3003 RMK A01 T01490074  RH  061%=      5-min Rain = 0
KCO1 150637Z 11009KT 15/08 A3003 RMK A01 T01480075  RH  061%=      5-min Rain = 0
KCO1 150638Z 11010KT 15/08 A3003 RMK A01 T01490075  RH  061%=      5-min Rain = 0
KCO1 150639Z 11009KT 15/08 A3003 RMK A01 T01480075  RH  062%=      5-min Rain = 0
KCO1 150640Z 11009KT 15/08 A3003 RMK A01 T01480076  RH  062%=      5-min Rain = 0
KCO1 150641Z 10009KT 15/08 A3003 RMK A01 T01480076  RH  062%=      5-min Rain = 0
KCO1 150642Z 11010KT 15/08 A3003 RMK A01 T01480077  RH  062%=      5-min Rain = 0
KCO1 150643Z 11010KT 15/08 A3003 RMK A01 T01480077  RH  062%=      5-min Rain = 0
KCO1 150644Z 11010KT 15/08 A3003 RMK A01 T01480077  RH  062%=      5-min Rain = 0
KCO1 150645Z 10010KT 15/08 A3003 RMK A01 T01480077  RH  062%=      5-min Rain = 0
KCO1 150646Z 11009KT 15/08 A3003 RMK A01 T01480077  RH  063%=      5-min Rain = 0
KCO1 150647Z 11009KT 15/08 A3003 RMK A01 T01480078  RH  063%=      5-min Rain = 0
KCO1 150648Z 11009KT 15/08 A3003 RMK A01 T01480078  RH  063%=      5-min Rain = 0
KCO1 150649Z 11010KT 15/08 A3003 RMK A01 T01480079  RH  063%=      5-min Rain = 0
KCO1 150650Z 11010KT 15/08 A3003 RMK A01 T01480079  RH  063%=      5-min Rain = 0
KCO1 150651Z 11010KT 15/08 A3003 RMK A01 T01480079  RH  063%=      5-min Rain = 0
KCO1 150652Z 11011KT 15/08 A3003 RMK A01 T01480079  RH  063%=      5-min Rain = 0
KCO1 150653Z 11010KT 15/08 A3003 RMK A01 T01480080  RH  064%=      5-min Rain = 0
KCO1 150654Z 11009KT 15/08 A3003 RMK A01 T01480080  RH  064%=      5-min Rain = 0
KCO1 150655Z 11009KT 15/08 A3003 RMK A01 T01480079  RH  064%=      5-min Rain = 0
KCO1 150656Z 11008KT 15/08 A3003 RMK A01 T01480080  RH  064%=      5-min Rain = 0
KCO1 150657Z 11009KT 15/08 A3003 RMK A01 T01480080  RH  064%=      5-min Rain = 0
KCO1 150658Z 11008KT 15/08 A3003 RMK A01 T01470081  RH  064%=      5-min Rain = 0
KCO1 150659Z 11009KT 15/08 A3003 RMK A01 T01470081  RH  064%=      5-min Rain = 0
KCO1 150700Z 12007KT 15/08 A3003 RMK A01 T01470081  RH  065%=      5-min Rain = 0
KCO1 150701Z 11009KT 15/08 A3003 RMK A01 T01470081  RH  065%=      5-min Rain = 0
KCO1 150702Z 11007KT 15/08 A3003 RMK A01 T01470081  RH  065%=      5-min Rain = 0
KCO1 150703Z 11007KT 15/08 A3003 RMK A01 T01470082  RH  065%=      5-min Rain = 0
KCO1 150704Z 11007KT 15/08 A3003 RMK A01 T01470082  RH  065%=      5-min Rain = 0
KCO1 150705Z 11008KT 15/08 A3003 RMK A01 T01470082  RH  065%=      5-min Rain = 0
KCO1 150706Z 11009KT 15/08 A3003 RMK A01 T01470082  RH  065%=      5-min Rain = 0
KCO1 150707Z 11008KT 15/08 A3003 RMK A01 T01470083  RH  065%=      5-min Rain = 0
KCO1 150708Z 12007KT 15/08 A3003 RMK A01 T01470083  RH  065%=      5-min Rain = 0
KCO1 150709Z 12006KT 15/08 A3003 RMK A01 T01470083  RH  065%=      5-min Rain = 0
KCO1 150710Z 11007KT 15/08 A3003 RMK A01 T01470083  RH  065%=      5-min Rain = 0
KCO1 150711Z 11008KT 15/08 A3003 RMK A01 T01470083  RH  066%=      5-min Rain = 0
KCO1 150712Z 12008KT 15/08 A3003 RMK A01 T01460083  RH  066%=      5-min Rain = 0
KCO1 150713Z 12008KT 15/08 A3003 RMK A01 T01470084  RH  066%=      5-min Rain = 0
KCO1 150714Z 12007KT 15/08 A3003 RMK A01 T01460083  RH  066%=      5-min Rain = 0
KCO1 150715Z 12007KT 15/08 A3003 RMK A01 T01460083  RH  066%=      5-min Rain = 0
KCO1 150716Z 12006KT 15/08 A3003 RMK A01 T01460083  RH  066%=      5-min Rain = 0
KCO1 150717Z 12007KT 15/08 A3003 RMK A01 T01450083  RH  066%=      5-min Rain = 0
KCO1 150718Z 12008KT 15/08 A3002 RMK A01 T01450083  RH  066%=      5-min Rain = 0
KCO1 150719Z 12009KT 15/08 A3002 RMK A01 T01450084  RH  067%=      5-min Rain = 0
KCO1 150720Z 12008KT 15/08 A3002 RMK A01 T01450084  RH  067%=      5-min Rain = 0
KCO1 150721Z 12008KT 15/08 A3002 RMK A01 T01450084  RH  067%=      5-min Rain = 0
KCO1 150722Z 12008KT 15/08 A3002 RMK A01 T01450084  RH  067%=      5-min Rain = 0
KCO1 150723Z 12009KT 15/08 A3002 RMK A01 T01450084  RH  067%=      5-min Rain = 0
KCO1 150724Z 12008KT 15/08 A3002 RMK A01 T01450084  RH  067%=      5-min Rain = 0
KCO1 150725Z 12007KT 15/08 A3002 RMK A01 T01450084  RH  067%=      5-min Rain = 0
KCO1 150726Z 12006KT 15/08 A3002 RMK A01 T01450084  RH  067%=      5-min Rain = 0
KCO1 150727Z 12007KT 14/08 A3002 RMK A01 T01440084  RH  067%=      5-min Rain = 0
KCO1 150728Z 12007KT 14/08 A3002 RMK A01 T01440084  RH  067%=      5-min Rain = 0
KCO1 150729Z 12007KT 14/08 A3002 RMK A01 T01440084  RH  067%=      5-min Rain = 0
KCO1 150730Z 12007KT 14/08 A3002 RMK A01 T01440084  RH  068%=      5-min Rain = 0
KCO1 150731Z 12006KT 14/08 A3002 RMK A01 T01440084  RH  067%=      5-min Rain = 0
KCO1 150732Z 13008KT 14/08 A3002 RMK A01 T01440084  RH  067%=      5-min Rain = 0
KCO1 150733Z 13007KT 14/08 A3002 RMK A01 T01430084  RH  068%=      5-min Rain = 0
KCO1 150734Z 12006KT 14/08 A3002 RMK A01 T01430084  RH  068%=      5-min Rain = 0
KCO1 150735Z 13006KT 14/08 A3002 RMK A01 T01430084  RH  068%=      5-min Rain = 0
KCO1 150736Z 12006KT 14/08 A3002 RMK A01 T01430084  RH  068%=      5-min Rain = 0
KCO1 150737Z 12007KT 14/08 A3002 RMK A01 T01430084  RH  068%=      5-min Rain = 0
KCO1 150738Z 12007KT 14/09 A3002 RMK A01 T01420085  RH  068%=      5-min Rain = 0
KCO1 150739Z 12006KT 14/09 A3002 RMK A01 T01420085  RH  068%=      5-min Rain = 0
KCO1 150740Z 12007KT 14/09 A3002 RMK A01 T01420085  RH  068%=      5-min Rain = 0
KCO1 150741Z 12007KT 14/09 A3002 RMK A01 T01420085  RH  068%=      5-min Rain = 0
KCO1 150742Z 12006KT 14/09 A3002 RMK A01 T01420085  RH  068%=      5-min Rain = 0
KCO1 150743Z 12006KT 14/09 A3002 RMK A01 T01420085  RH  069%=      5-min Rain = 0
KCO1 150744Z 12005KT 14/09 A3002 RMK A01 T01410085  RH  069%=      5-min Rain = 0
KCO1 150745Z 12004KT 14/09 A3003 RMK A01 T01410085  RH  069%=      5-min Rain = 0
KCO1 150746Z 11004KT 14/09 A3003 RMK A01 T01410085  RH  069%=      5-min Rain = 0
KCO1 150747Z 11003KT 14/09 A3003 RMK A01 T01400085  RH  069%=      5-min Rain = 0
KCO1 150748Z 09002KT 14/08 A3003 RMK A01 T01400084  RH  069%=      5-min Rain = 0
KCO1 150749Z 07001KT 14/09 A3003 RMK A01 T01400085  RH  070%=      5-min Rain = 0
KCO1 150750Z 04001KT 14/09 A3003 RMK A01 T01390085  RH  070%=      5-min Rain = 0
KCO1 150751Z 03002KT 14/08 A3003 RMK A01 T01390084  RH  069%=      5-min Rain = 0
KCO1 150752Z 01002KT 14/08 A3003 RMK A01 T01380083  RH  069%=      5-min Rain = 0
KCO1 150753Z 03001KT 14/08 A3003 RMK A01 T01380083  RH  069%=      5-min Rain = 0
KCO1 150754Z 05001KT 14/08 A3003 RMK A01 T01370083  RH  070%=      5-min Rain = 0
KCO1 150755Z 06001KT 14/08 A3003 RMK A01 T01370084  RH  070%=      5-min Rain = 0
KCO1 150756Z 06001KT 14/08 A3003 RMK A01 T01370084  RH  070%=      5-min Rain = 0
KCO1 150757Z 07001KT 14/08 A3004 RMK A01 T01370084  RH  070%=      5-min Rain = 0
KCO1 150758Z 08001KT 14/08 A3004 RMK A01 T01370084  RH  071%=      5-min Rain = 0
KCO1 150759Z 09001KT 14/09 A3004 RMK A01 T01370085  RH  071%=      5-min Rain = 0
KCO1 150800Z 08002KT 14/09 A3004 RMK A01 T01360085  RH  071%=      5-min Rain = 0
KCO1 150801Z 09002KT 14/09 A3003 RMK A01 T01360085  RH  071%=      5-min Rain = 0
KCO1 150802Z 10002KT 14/09 A3003 RMK A01 T01360085  RH  071%=      5-min Rain = 0
KCO1 150803Z 10002KT 14/09 A3003 RMK A01 T01350085  RH  072%=      5-min Rain = 0
KCO1 150804Z 11003KT 14/09 A3004 RMK A01 T01350085  RH  072%=      5-min Rain = 0
KCO1 150805Z 11002KT 14/09 A3004 RMK A01 T01350085  RH  072%=      5-min Rain = 0
KCO1 150806Z 11002KT 14/09 A3004 RMK A01 T01350085  RH  072%=      5-min Rain = 0
KCO1 150807Z 10002KT 13/08 A3004 RMK A01 T01340084  RH  072%=      5-min Rain = 0
KCO1 150808Z 10002KT 13/08 A3004 RMK A01 T01330084  RH  072%=      5-min Rain = 0
KCO1 150809Z 09002KT 13/08 A3004 RMK A01 T01330083  RH  072%=      5-min Rain = 0
KCO1 150810Z 10002KT 13/08 A3004 RMK A01 T01320083  RH  072%=      5-min Rain = 0
KCO1 150811Z 10002KT 13/08 A3004 RMK A01 T01310083  RH  073%=      5-min Rain = 0
KCO1 150812Z 10002KT 13/08 A3004 RMK A01 T01310084  RH  073%=      5-min Rain = 0
KCO1 150813Z 10002KT 13/08 A3004 RMK A01 T01300083  RH  073%=      5-min Rain = 0
KCO1 150814Z 11001KT 13/08 A3004 RMK A01 T01300083  RH  073%=      5-min Rain = 0
KCO1 150815Z 11001KT 13/08 A3004 RMK A01 T01290083  RH  073%=      5-min Rain = 0
KCO1 150816Z 11001KT 13/08 A3004 RMK A01 T01290083  RH  074%=      5-min Rain = 0
KCO1 150817Z 12002KT 13/08 A3004 RMK A01 T01280082  RH  074%=      5-min Rain = 0
KCO1 150818Z 12002KT 13/08 A3004 RMK A01 T01280084  RH  075%=      5-min Rain = 0
KCO1 150819Z 13002KT 13/09 A3004 RMK A01 T01280085  RH  075%=      5-min Rain = 0
KCO1 150820Z 13002KT 13/09 A3004 RMK A01 T01280085  RH  075%=      5-min Rain = 0
KCO1 150821Z 15002KT 13/08 A3004 RMK A01 T01280081  RH  073%=      5-min Rain = 0
KCO1 150822Z 15001KT 13/07 A3004 RMK A01 T01250074  RH  071%=      5-min Rain = 0
KCO1 150823Z 15001KT 12/08 A3004 RMK A01 T01230077  RH  073%=      5-min Rain = 0
KCO1 150824Z 00000KT 12/08 A3004 RMK A01 T01230081  RH  076%=      5-min Rain = 0
KCO1 150825Z 24000KT 12/08 A3004 RMK A01 T01230081  RH  075%=      5-min Rain = 0
KCO1 150826Z 25001KT 12/08 A3004 RMK A01 T01230080  RH  075%=      5-min Rain = 0
KCO1 150827Z 29001KT 12/08 A3004 RMK A01 T01230075  RH  073%=      5-min Rain = 0
KCO1 150828Z 30002KT 12/08 A3004 RMK A01 T01210076  RH  074%=      5-min Rain = 0
KCO1 150829Z 30002KT 12/08 A3004 RMK A01 T01200076  RH  074%=      5-min Rain = 0
KCO1 150830Z 30003KT 12/08 A3004 RMK A01 T01200075  RH  074%=      5-min Rain = 0
KCO1 150831Z 30003KT 12/07 A3004 RMK A01 T01180074  RH  074%=      5-min Rain = 0
KCO1 150832Z 30004KT 12/07 A3004 RMK A01 T01170073  RH  074%=      5-min Rain = 0
KCO1 150833Z 29004KT 12/07 A3004 RMK A01 T01160071  RH  074%=      5-min Rain = 0
KCO1 150834Z 29004KT 11/07 A3004 RMK A01 T01140069  RH  074%=      5-min Rain = 0
KCO1 150835Z 29005KT 11/07 A3005 RMK A01 T01120068  RH  074%=      5-min Rain = 0
KCO1 150836Z 29004KT 11/07 A3005 RMK A01 T01120069  RH  075%=      5-min Rain = 0
KCO1 150837Z 29004KT 11/07 A3005 RMK A01 T01110068  RH  075%=      5-min Rain = 0
KCO1 150838Z 29004KT 11/07 A3004 RMK A01 T01110068  RH  075%=      5-min Rain = 0
KCO1 150839Z 30004KT 11/07 A3005 RMK A01 T01110068  RH  075%=      5-min Rain = 0
KCO1 150840Z 31004KT 11/07 A3004 RMK A01 T01100068  RH  075%=      5-min Rain = 0
KCO1 150841Z 31003KT 11/07 A3004 RMK A01 T01100068  RH  075%=      5-min Rain = 0
KCO1 150842Z 32004KT 11/07 A3004 RMK A01 T01100068  RH  075%=      5-min Rain = 0
KCO1 150843Z 31004KT 11/07 A3005 RMK A01 T01100069  RH  076%=      5-min Rain = 0
KCO1 150844Z 31005KT 11/07 A3005 RMK A01 T01100069  RH  076%=      5-min Rain = 0
KCO1 150845Z 31005KT 11/07 A3005 RMK A01 T01110069  RH  076%=      5-min Rain = 0
KCO1 150846Z 32005KT 11/07 A3005 RMK A01 T01110068  RH  075%=      5-min Rain = 0
KCO1 150847Z 31005KT 11/07 A3005 RMK A01 T01110068  RH  075%=      5-min Rain = 0
KCO1 150848Z 31005KT 11/07 A3005 RMK A01 T01110067  RH  074%=      5-min Rain = 0
KCO1 150849Z 31005KT 11/07 A3005 RMK A01 T01110067  RH  075%=      5-min Rain = 0
KCO1 150850Z 32005KT 11/07 A3005 RMK A01 T01110068  RH  075%=      5-min Rain = 0
KCO1 150851Z 32005KT 11/07 A3004 RMK A01 T01110068  RH  075%=      5-min Rain = 0
KCO1 150852Z 32005KT 11/07 A3004 RMK A01 T01110068  RH  075%=      5-min Rain = 0
KCO1 150853Z 32004KT 11/07 A3004 RMK A01 T01120068  RH  074%=      5-min Rain = 0
KCO1 150854Z 32003KT 11/07 A3004 RMK A01 T01120067  RH  074%=      5-min Rain = 0
KCO1 150855Z 32002KT 11/07 A3004 RMK A01 T01110066  RH  074%=      5-min Rain = 0
KCO1 150856Z 32002KT 11/07 A3004 RMK A01 T01110066  RH  074%=      5-min Rain = 0
KCO1 150857Z 33002KT 11/07 A3004 RMK A01 T01100066  RH  074%=      5-min Rain = 0
KCO1 150858Z 33003KT 11/07 A3004 RMK A01 T01090066  RH  075%=      5-min Rain = 0
KCO1 150859Z 33003KT 11/07 A3004 RMK A01 T01090067  RH  075%=      5-min Rain = 0
KCO1 150900Z 33003KT 11/07 A3004 RMK A01 T01090067  RH  075%=      5-min Rain = 0
KCO1 150901Z 33003KT 11/07 A3004 RMK A01 T01090067  RH  075%=      5-min Rain = 0
KCO1 150902Z 33004KT 11/07 A3004 RMK A01 T01090067  RH  075%=      5-min Rain = 0
KCO1 150903Z 33003KT 11/07 A3004 RMK A01 T01090066  RH  075%=      5-min Rain = 0
KCO1 150904Z 33003KT 11/07 A3003 RMK A01 T01080066  RH  075%=      5-min Rain = 0
KCO1 150905Z 33002KT 11/07 A3003 RMK A01 T01080066  RH  075%=      5-min Rain = 0
KCO1 150906Z 33002KT 11/07 A3003 RMK A01 T01080065  RH  075%=      5-min Rain = 0
KCO1 150907Z 32002KT 11/07 A3003 RMK A01 T01070065  RH  075%=      5-min Rain = 0
KCO1 150908Z 32002KT 11/07 A3003 RMK A01 T01070065  RH  075%=      5-min Rain = 0
KCO1 150909Z 32001KT 11/07 A3003 RMK A01 T01060065  RH  076%=      5-min Rain = 0
KCO1 150910Z 32002KT 11/07 A3003 RMK A01 T01060066  RH  076%=      5-min Rain = 0
KCO1 150911Z 32002KT 11/07 A3003 RMK A01 T01050065  RH  076%=      5-min Rain = 0
KCO1 150912Z 32002KT 11/07 A3003 RMK A01 T01050065  RH  076%=      5-min Rain = 0
KCO1 150913Z 32002KT 11/07 A3003 RMK A01 T01050065  RH  077%=      5-min Rain = 0
KCO1 150914Z 32002KT 11/07 A3003 RMK A01 T01050066  RH  077%=      5-min Rain = 0
KCO1 150915Z 30002KT 11/07 A3003 RMK A01 T01050065  RH  076%=      5-min Rain = 0
KCO1 150916Z 29002KT 10/06 A3003 RMK A01 T01040063  RH  076%=      5-min Rain = 0
KCO1 150917Z 29002KT 10/07 A3004 RMK A01 T01040065  RH  077%=      5-min Rain = 0
KCO1 150918Z 29002KT 10/07 A3004 RMK A01 T01040065  RH  076%=      5-min Rain = 0
KCO1 150919Z 27003KT 10/06 A3004 RMK A01 T01040064  RH  077%=      5-min Rain = 0
KCO1 150920Z 27003KT 10/07 A3004 RMK A01 T01040065  RH  077%=      5-min Rain = 0
KCO1 150921Z 27003KT 10/06 A3004 RMK A01 T01030063  RH  076%=      5-min Rain = 0
KCO1 150922Z 27003KT 10/06 A3004 RMK A01 T01020061  RH  076%=      5-min Rain = 0
KCO1 150923Z 27003KT 10/06 A3004 RMK A01 T01020060  RH  075%=      5-min Rain = 0
KCO1 150924Z 27004KT 10/06 A3004 RMK A01 T01010060  RH  076%=      5-min Rain = 0
KCO1 150925Z 28004KT 10/06 A3004 RMK A01 T01000061  RH  076%=      5-min Rain = 0
KCO1 150926Z 27003KT 10/06 A3004 RMK A01 T01000061  RH  077%=      5-min Rain = 0
KCO1 150927Z 27003KT 10/06 A3004 RMK A01 T01000062  RH  077%=      5-min Rain = 0
KCO1 150928Z 27003KT 10/06 A3004 RMK A01 T01000061  RH  077%=      5-min Rain = 0
KCO1 150929Z 27003KT 10/06 A3004 RMK A01 T01000061  RH  077%=      5-min Rain = 0
KCO1 150930Z 27002KT 10/06 A3004 RMK A01 T00990060  RH  077%=      5-min Rain = 0
KCO1 150931Z 27002KT 10/06 A3004 RMK A01 T00990060  RH  077%=      5-min Rain = 0
KCO1 150932Z 27003KT 10/06 A3004 RMK A01 T00990060  RH  077%=      5-min Rain = 0
KCO1 150933Z 28003KT 10/06 A3004 RMK A01 T00990061  RH  077%=      5-min Rain = 0
KCO1 150934Z 28003KT 10/06 A3004 RMK A01 T00990061  RH  077%=      5-min Rain = 0
KCO1 150935Z 27002KT 10/06 A3004 RMK A01 T00990060  RH  077%=      5-min Rain = 0
KCO1 150936Z 28002KT 10/06 A3004 RMK A01 T00990060  RH  077%=      5-min Rain = 0
KCO1 150937Z 27002KT 10/06 A3004 RMK A01 T00990061  RH  077%=      5-min Rain = 0
KCO1 150938Z 27002KT 10/06 A3004 RMK A01 T00990062  RH  078%=      5-min Rain = 0
KCO1 150939Z 27003KT 10/06 A3004 RMK A01 T00990062  RH  078%=      5-min Rain = 0
KCO1 150940Z 26003KT 10/06 A3004 RMK A01 T00990063  RH  078%=      5-min Rain = 0
KCO1 150941Z 26003KT 10/06 A3004 RMK A01 T00990063  RH  078%=      5-min Rain = 0
KCO1 150942Z 26003KT 10/06 A3004 RMK A01 T01000063  RH  078%=      5-min Rain = 0
KCO1 150943Z 27002KT 10/06 A3005 RMK A01 T01000063  RH  078%=      5-min Rain = 0
KCO1 150944Z 27002KT 10/06 A3005 RMK A01 T01010063  RH  077%=      5-min Rain = 0
KCO1 150945Z 26002KT 10/06 A3005 RMK A01 T01010061  RH  076%=      5-min Rain = 0
KCO1 150946Z 27003KT 10/06 A3005 RMK A01 T01010060  RH  076%=      5-min Rain = 0
KCO1 150947Z 27003KT 10/06 A3004 RMK A01 T01010060  RH  075%=      5-min Rain = 0
KCO1 150948Z 27003KT 10/06 A3004 RMK A01 T01010059  RH  075%=      5-min Rain = 0
KCO1 150949Z 27003KT 10/06 A3004 RMK A01 T01010058  RH  075%=      5-min Rain = 0
KCO1 150950Z 26003KT 10/06 A3004 RMK A01 T01000057  RH  074%=      5-min Rain = 0
KCO1 150951Z 26003KT 10/06 A3004 RMK A01 T00990056  RH  074%=      5-min Rain = 0
KCO1 150952Z 26003KT 10/05 A3004 RMK A01 T00990054  RH  074%=      5-min Rain = 0
KCO1 150953Z 26002KT 10/05 A3004 RMK A01 T00980053  RH  074%=      5-min Rain = 0
KCO1 150954Z 26002KT 10/05 A3004 RMK A01 T00980054  RH  074%=      5-min Rain = 0
KCO1 150955Z 26002KT 10/06 A3004 RMK A01 T00980055  RH  075%=      5-min Rain = 0
KCO1 150956Z 27001KT 10/06 A3004 RMK A01 T00980055  RH  075%=      5-min Rain = 0
KCO1 150957Z 27001KT 10/06 A3004 RMK A01 T00970055  RH  075%=      5-min Rain = 0
KCO1 150958Z 26001KT 10/05 A3004 RMK A01 T00950052  RH  075%=      5-min Rain = 0
KCO1 150959Z 25001KT 09/05 A3004 RMK A01 T00940051  RH  075%=      5-min Rain = 0
KCO1 151000Z 24001KT 09/05 A3004 RMK A01 T00920050  RH  075%=      5-min Rain = 0
KCO1 151001Z 24001KT 09/05 A3004 RMK A01 T00910049  RH  075%=      5-min Rain = 0
KCO1 151002Z 25001KT 09/05 A3004 RMK A01 T00880047  RH  075%=      5-min Rain = 0
KCO1 151003Z 25002KT 09/05 A3004 RMK A01 T00860045  RH  075%=      5-min Rain = 0
KCO1 151004Z 25002KT 09/04 A3004 RMK A01 T00850044  RH  075%=      5-min Rain = 0
KCO1 151005Z 24002KT 08/04 A3004 RMK A01 T00840043  RH  075%=      5-min Rain = 0
KCO1 151006Z 23002KT 08/04 A3004 RMK A01 T00830041  RH  075%=      5-min Rain = 0
KCO1 151007Z 24002KT 08/04 A3004 RMK A01 T00820040  RH  075%=      5-min Rain = 0
KCO1 151008Z 25002KT 08/04 A3004 RMK A01 T00820041  RH  075%=      5-min Rain = 0
KCO1 151009Z 24002KT 08/04 A3004 RMK A01 T00830044  RH  076%=      5-min Rain = 0
KCO1 151010Z 23003KT 09/05 A3004 RMK A01 T00850045  RH  076%=      5-min Rain = 0
KCO1 151011Z 23002KT 09/04 A3004 RMK A01 T00860044  RH  075%=      5-min Rain = 0
KCO1 151012Z 23002KT 09/04 A3004 RMK A01 T00860043  RH  075%=      5-min Rain = 0
KCO1 151013Z 23002KT 09/04 A3004 RMK A01 T00860043  RH  074%=      5-min Rain = 0
KCO1 151014Z 23002KT 09/04 A3004 RMK A01 T00860043  RH  074%=      5-min Rain = 0
KCO1 151015Z 23002KT 09/04 A3004 RMK A01 T00860044  RH  074%=      5-min Rain = 0
KCO1 151016Z 22002KT 09/04 A3004 RMK A01 T00870044  RH  074%=      5-min Rain = 0
KCO1 151017Z 22002KT 09/04 A3004 RMK A01 T00870043  RH  074%=      5-min Rain = 0
KCO1 151018Z 22002KT 09/04 A3004 RMK A01 T00870042  RH  073%=      5-min Rain = 0
KCO1 151019Z 22002KT 09/04 A3004 RMK A01 T00870042  RH  073%=      5-min Rain = 0
KCO1 151020Z 21003KT 09/04 A3004 RMK A01 T00870041  RH  073%=      5-min Rain = 0
KCO1 151021Z 21003KT 09/04 A3004 RMK A01 T00860040  RH  073%=      5-min Rain = 0
KCO1 151022Z 21003KT 09/04 A3004 RMK A01 T00860039  RH  073%=      5-min Rain = 0
KCO1 151023Z 21004KT 09/04 A3004 RMK A01 T00860039  RH  072%=      5-min Rain = 0
KCO1 151024Z 21004KT 09/04 A3004 RMK A01 T00860038  RH  072%=      5-min Rain = 0
KCO1 151025Z 21004KT 09/04 A3004 RMK A01 T00850037  RH  072%=      5-min Rain = 0
KCO1 151026Z 22004KT 09/04 A3004 RMK A01 T00860037  RH  071%=      5-min Rain = 0
KCO1 151027Z 22004KT 09/04 A3004 RMK A01 T00860037  RH  071%=      5-min Rain = 0
KCO1 151028Z 22004KT 09/04 A3004 RMK A01 T00870038  RH  071%=      5-min Rain = 0
KCO1 151029Z 22004KT 09/04 A3004 RMK A01 T00880038  RH  071%=      5-min Rain = 0
KCO1 151030Z 22005KT 09/04 A3004 RMK A01 T00880037  RH  070%=      5-min Rain = 0
KCO1 151031Z 21004KT 09/04 A3004 RMK A01 T00880036  RH  070%=      5-min Rain = 0
KCO1 151032Z 21004KT 09/04 A3004 RMK A01 T00870035  RH  070%=      5-min Rain = 0
KCO1 151033Z 20003KT 09/04 A3004 RMK A01 T00860035  RH  070%=      5-min Rain = 0
KCO1 151034Z 20003KT 09/03 A3004 RMK A01 T00850034  RH  070%=      5-min Rain = 0
KCO1 151035Z 20004KT 08/03 A3004 RMK A01 T00840034  RH  070%=      5-min Rain = 0
KCO1 151036Z 21004KT 08/03 A3004 RMK A01 T00840034  RH  071%=      5-min Rain = 0
KCO1 151037Z 20003KT 08/03 A3004 RMK A01 T00840034  RH  071%=      5-min Rain = 0
KCO1 151038Z 19003KT 08/03 A3004 RMK A01 T00840033  RH  070%=      5-min Rain = 0
KCO1 151039Z 19004KT 08/03 A3004 RMK A01 T00840033  RH  070%=      5-min Rain = 0
KCO1 151040Z 19004KT 08/03 A3004 RMK A01 T00840033  RH  070%=      5-min Rain = 0
KCO1 151041Z 19004KT 08/03 A3004 RMK A01 T00830032  RH  070%=      5-min Rain = 0
KCO1 151042Z 19005KT 08/03 A3004 RMK A01 T00830031  RH  070%=      5-min Rain = 0
KCO1 151043Z 20005KT 08/03 A3004 RMK A01 T00830031  RH  070%=      5-min Rain = 0
KCO1 151044Z 21004KT 08/03 A3004 RMK A01 T00830031  RH  070%=      5-min Rain = 0
KCO1 151045Z 20004KT 08/03 A3004 RMK A01 T00840031  RH  069%=      5-min Rain = 0
KCO1 151046Z 21004KT 09/03 A3004 RMK A01 T00850031  RH  069%=      5-min Rain = 0
KCO1 151047Z 20004KT 09/03 A3004 RMK A01 T00860031  RH  069%=      5-min Rain = 0
KCO1 151048Z 20004KT 09/03 A3003 RMK A01 T00860031  RH  068%=      5-min Rain = 0
KCO1 151049Z 20005KT 09/03 A3003 RMK A01 T00860031  RH  068%=      5-min Rain = 0
KCO1 151050Z 19005KT 09/03 A3003 RMK A01 T00860030  RH  068%=      5-min Rain = 0
KCO1 151051Z 19005KT 09/03 A3003 RMK A01 T00860030  RH  068%=      5-min Rain = 0
KCO1 151052Z 19005KT 09/03 A3003 RMK A01 T00860029  RH  068%=      5-min Rain = 0
KCO1 151053Z 19005KT 09/03 A3003 RMK A01 T00850029  RH  067%=      5-min Rain = 0
KCO1 151054Z 19005KT 09/03 A3003 RMK A01 T00850028  RH  067%=      5-min Rain = 0
KCO1 151055Z 19005KT 09/03 A3003 RMK A01 T00860028  RH  067%=      5-min Rain = 0
KCO1 151056Z 19006KT 09/03 A3003 RMK A01 T00860027  RH  066%=      5-min Rain = 0
KCO1 151057Z 19006KT 09/03 A3003 RMK A01 T00860027  RH  066%=      5-min Rain = 0
KCO1 151058Z 19006KT 09/03 A3003 RMK A01 T00860027  RH  066%=      5-min Rain = 0
KCO1 151059Z 19005KT 09/03 A3003 RMK A01 T00860027  RH  066%=      5-min Rain = 0
KCO1 151100Z 19005KT 09/03 A3003 RMK A01 T00860026  RH  066%=      5-min Rain = 0
KCO1 151101Z 18005KT 09/03 A3003 RMK A01 T00860025  RH  065%=      5-min Rain = 0
KCO1 151102Z 18005KT 09/03 A3003 RMK A01 T00870026  RH  065%=      5-min Rain = 0
KCO1 151103Z 18006KT 09/03 A3003 RMK A01 T00870025  RH  065%=      5-min Rain = 0
KCO1 151104Z 18006KT 09/03 A3003 RMK A01 T00870025  RH  065%=      5-min Rain = 0
KCO1 151105Z 19006KT 09/03 A3003 RMK A01 T00880025  RH  065%=      5-min Rain = 0
KCO1 151106Z 19006KT 09/03 A3003 RMK A01 T00890025  RH  064%=      5-min Rain = 0
KCO1 151107Z 19006KT 09/02 A3003 RMK A01 T00890024  RH  064%=      5-min Rain = 0
KCO1 151108Z 20005KT 09/02 A3003 RMK A01 T00890024  RH  064%=      5-min Rain = 0
KCO1 151109Z 21005KT 09/03 A3003 RMK A01 T00900025  RH  064%=      5-min Rain = 0
KCO1 151110Z 21005KT 09/03 A3003 RMK A01 T00910025  RH  063%=      5-min Rain = 0
KCO1 151111Z 21005KT 09/03 A3003 RMK A01 T00930026  RH  063%=      5-min Rain = 0
KCO1 151112Z 20005KT 09/03 A3003 RMK A01 T00940026  RH  063%=      5-min Rain = 0
KCO1 151113Z 20004KT 09/03 A3003 RMK A01 T00940026  RH  062%=      5-min Rain = 0
KCO1 151114Z 21004KT 10/03 A3003 RMK A01 T00950026  RH  062%=      5-min Rain = 0
KCO1 151115Z 20005KT 10/03 A3003 RMK A01 T00950027  RH  062%=      5-min Rain = 0
KCO1 151116Z 19004KT 10/03 A3003 RMK A01 T00950026  RH  062%=      5-min Rain = 0
KCO1 151117Z 17003KT 10/03 A3003 RMK A01 T00950027  RH  062%=      5-min Rain = 0
KCO1 151118Z 19003KT 09/03 A3003 RMK A01 T00940026  RH  063%=      5-min Rain = 0
KCO1 151119Z 18003KT 09/03 A3003 RMK A01 T00930026  RH  063%=      5-min Rain = 0
KCO1 151120Z 17002KT 09/03 A3003 RMK A01 T00920025  RH  063%=      5-min Rain = 0
KCO1 151121Z 17003KT 09/03 A3003 RMK A01 T00910025  RH  063%=      5-min Rain = 0
KCO1 151122Z 18004KT 09/02 A3003 RMK A01 T00900024  RH  063%=      5-min Rain = 0
KCO1 151123Z 19004KT 09/02 A3003 RMK A01 T00900024  RH  063%=      5-min Rain = 0
KCO1 151124Z 21003KT 09/03 A3003 RMK A01 T00900025  RH  064%=      5-min Rain = 0
KCO1 151125Z 21003KT 09/03 A3003 RMK A01 T00900026  RH  064%=      5-min Rain = 0
KCO1 151126Z 20003KT 09/03 A3003 RMK A01 T00900026  RH  065%=      5-min Rain = 0
KCO1 151127Z 21005KT 09/03 A3003 RMK A01 T00910027  RH  064%=      5-min Rain = 0
KCO1 151128Z 21003KT 09/03 A3003 RMK A01 T00920027  RH  064%=      5-min Rain = 0
KCO1 151129Z 21003KT 09/03 A3003 RMK A01 T00920027  RH  063%=      5-min Rain = 0
KCO1 151130Z 20003KT 09/03 A3003 RMK A01 T00920026  RH  063%=      5-min Rain = 0
KCO1 151131Z 19003KT 09/03 A3003 RMK A01 T00920026  RH  063%=      5-min Rain = 0
KCO1 151132Z 20003KT 09/03 A3003 RMK A01 T00910026  RH  063%=      5-min Rain = 0
KCO1 151133Z 20003KT 09/03 A3003 RMK A01 T00910025  RH  063%=      5-min Rain = 0
KCO1 151134Z 19003KT 09/03 A3003 RMK A01 T00910025  RH  063%=      5-min Rain = 0
KCO1 151135Z 19004KT 09/03 A3003 RMK A01 T00910025  RH  063%=      5-min Rain = 0
KCO1 151136Z 19004KT 09/03 A3003 RMK A01 T00910025  RH  063%=      5-min Rain = 0
KCO1 151137Z 18003KT 09/03 A3003 RMK A01 T00910025  RH  063%=      5-min Rain = 0
KCO1 151138Z 18003KT 09/03 A3003 RMK A01 T00910026  RH  063%=      5-min Rain = 0
KCO1 151139Z 17003KT 09/03 A3003 RMK A01 T00900025  RH  064%=      5-min Rain = 0
KCO1 151140Z 17003KT 09/03 A3003 RMK A01 T00890025  RH  064%=      5-min Rain = 0
KCO1 151141Z 16004KT 09/03 A3003 RMK A01 T00890025  RH  064%=      5-min Rain = 0
KCO1 151142Z 16004KT 09/03 A3003 RMK A01 T00870025  RH  065%=      5-min Rain = 0
KCO1 151143Z 16004KT 09/03 A3003 RMK A01 T00870025  RH  065%=      5-min Rain = 0
KCO1 151144Z 17005KT 09/02 A3003 RMK A01 T00870024  RH  065%=      5-min Rain = 0
KCO1 151145Z 17005KT 09/02 A3003 RMK A01 T00870024  RH  065%=      5-min Rain = 0
KCO1 151146Z 17005KT 09/02 A3003 RMK A01 T00870024  RH  065%=      5-min Rain = 0
KCO1 151147Z 17005KT 09/02 A3003 RMK A01 T00860023  RH  065%=      5-min Rain = 0
KCO1 151148Z 17005KT 09/02 A3003 RMK A01 T00870024  RH  065%=      5-min Rain = 0
KCO1 151149Z 16005KT 09/02 A3003 RMK A01 T00860023  RH  065%=      5-min Rain = 0
KCO1 151150Z 16005KT 09/02 A3003 RMK A01 T00870024  RH  065%=      5-min Rain = 0
KCO1 151151Z 17006KT 09/02 A3003 RMK A01 T00880024  RH  064%=      5-min Rain = 0
KCO1 151152Z 17005KT 09/02 A3003 RMK A01 T00890024  RH  064%=      5-min Rain = 0
KCO1 151153Z 16005KT 09/03 A3003 RMK A01 T00900025  RH  063%=      5-min Rain = 0
KCO1 151154Z 16005KT 09/02 A3003 RMK A01 T00920024  RH  063%=      5-min Rain = 0
KCO1 151155Z 16005KT 09/02 A3003 RMK A01 T00920024  RH  062%=      5-min Rain = 0
KCO1 151156Z 16005KT 09/03 A3003 RMK A01 T00930025  RH  062%=      5-min Rain = 0
KCO1 151157Z 16004KT 09/03 A3003 RMK A01 T00940025  RH  062%=      5-min Rain = 0
KCO1 151158Z 17005KT 10/02 A3003 RMK A01 T00950024  RH  062%=      5-min Rain = 0
KCO1 151159Z 17005KT 10/03 A3003 RMK A01 T00950025  RH  061%=      5-min Rain = 0
KCO1 151200Z 17006KT 10/02 A3003 RMK A01 T00950024  RH  061%=      5-min Rain = 0
KCO1 151201Z 17006KT 10/03 A3003 RMK A01 T00960025  RH  061%=      5-min Rain = 0
KCO1 151202Z 17006KT 10/03 A3003 RMK A01 T00970025  RH  061%=      5-min Rain = 0
KCO1 151203Z 17006KT 10/03 A3003 RMK A01 T00970025  RH  061%=      5-min Rain = 0
KCO1 151204Z 17005KT 10/03 A3003 RMK A01 T00980025  RH  060%=      5-min Rain = 0
KCO1 151205Z 16005KT 10/03 A3003 RMK A01 T00980025  RH  060%=      5-min Rain = 0
KCO1 151206Z 16005KT 10/03 A3003 RMK A01 T00980025  RH  060%=      5-min Rain = 0
KCO1 151207Z 16005KT 10/03 A3003 RMK A01 T00990025  RH  060%=      5-min Rain = 0
KCO1 151208Z 16005KT 10/03 A3003 RMK A01 T00990026  RH  060%=      5-min Rain = 0
KCO1 151209Z 17005KT 10/03 A3003 RMK A01 T00990026  RH  060%=      5-min Rain = 0
KCO1 151210Z 16005KT 10/03 A3003 RMK A01 T00990026  RH  060%=      5-min Rain = 0
KCO1 151211Z 16005KT 10/03 A3003 RMK A01 T00990026  RH  060%=      5-min Rain = 0
KCO1 151212Z 17005KT 10/03 A3003 RMK A01 T00990026  RH  060%=      5-min Rain = 0
KCO1 151213Z 16004KT 10/03 A3003 RMK A01 T00990026  RH  061%=      5-min Rain = 0
KCO1 151214Z 16005KT 10/03 A3003 RMK A01 T00990026  RH  061%=      5-min Rain = 0
KCO1 151215Z 16005KT 10/03 A3003 RMK A01 T00990027  RH  061%=      5-min Rain = 0
KCO1 151216Z 16005KT 10/03 A3003 RMK A01 T00980027  RH  061%=      5-min Rain = 0
KCO1 151217Z 16005KT 10/03 A3003 RMK A01 T00980027  RH  061%=      5-min Rain = 0
KCO1 151218Z 15005KT 10/03 A3003 RMK A01 T00980027  RH  061%=      5-min Rain = 0
KCO1 151219Z 15005KT 10/03 A3003 RMK A01 T00980027  RH  061%=      5-min Rain = 0
KCO1 151220Z 15005KT 10/03 A3003 RMK A01 T00990027  RH  061%=      5-min Rain = 0
KCO1 151221Z 14004KT 10/03 A3003 RMK A01 T00990027  RH  061%=      5-min Rain = 0
KCO1 151222Z 14004KT 10/03 A3003 RMK A01 T01000028  RH  061%=      5-min Rain = 0
KCO1 151223Z 14005KT 10/03 A3003 RMK A01 T01000028  RH  061%=      5-min Rain = 0
KCO1 151224Z 14005KT 10/03 A3003 RMK A01 T01000027  RH  061%=      5-min Rain = 0
KCO1 151225Z 14005KT 10/03 A3003 RMK A01 T01000028  RH  061%=      5-min Rain = 0
KCO1 151226Z 13005KT 10/03 A3003 RMK A01 T01000028  RH  061%=      5-min Rain = 0
KCO1 151227Z 13005KT 10/03 A3003 RMK A01 T00990028  RH  061%=      5-min Rain = 0
KCO1 151228Z 13005KT 10/03 A3003 RMK A01 T00990028  RH  061%=      5-min Rain = 0
KCO1 151229Z 13006KT 10/03 A3003 RMK A01 T00990028  RH  061%=      5-min Rain = 0
KCO1 151230Z 13005KT 10/03 A3003 RMK A01 T00990029  RH  061%=      5-min Rain = 0
KCO1 151231Z 14005KT 10/03 A3003 RMK A01 T00990029  RH  061%=      5-min Rain = 0
KCO1 151232Z 14005KT 10/03 A3003 RMK A01 T00990029  RH  061%=      5-min Rain = 0
KCO1 151233Z 14005KT 10/03 A3003 RMK A01 T00990029  RH  061%=      5-min Rain = 0
KCO1 151234Z 14006KT 10/03 A3003 RMK A01 T00990028  RH  061%=      5-min Rain = 0
KCO1 151235Z 14006KT 10/03 A3003 RMK A01 T00990029  RH  061%=      5-min Rain = 0
KCO1 151236Z 14006KT 10/03 A3003 RMK A01 T00990028  RH  062%=      5-min Rain = 0
KCO1 151237Z 14005KT 10/03 A3003 RMK A01 T00990028  RH  062%=      5-min Rain = 0
KCO1 151238Z 14005KT 10/03 A3003 RMK A01 T00990029  RH  062%=      5-min Rain = 0
KCO1 151239Z 15005KT 10/03 A3003 RMK A01 T00990029  RH  062%=      5-min Rain = 0
KCO1 151240Z 15005KT 10/03 A3003 RMK A01 T00990029  RH  062%=      5-min Rain = 0
KCO1 151241Z 16005KT 10/03 A3003 RMK A01 T00990030  RH  062%=      5-min Rain = 0
KCO1 151242Z 15005KT 10/03 A3003 RMK A01 T00990030  RH  062%=      5-min Rain = 0
KCO1 151243Z 15005KT 10/03 A3003 RMK A01 T01000030  RH  062%=      5-min Rain = 0
KCO1 151244Z 15005KT 10/03 A3003 RMK A01 T01000031  RH  062%=      5-min Rain = 0
KCO1 151245Z 15005KT 10/03 A3003 RMK A01 T01010031  RH  062%=      5-min Rain = 0
KCO1 151246Z 15005KT 10/03 A3003 RMK A01 T01020032  RH  062%=      5-min Rain = 0
KCO1 151247Z 16005KT 10/03 A3003 RMK A01 T01020032  RH  062%=      5-min Rain = 0
KCO1 151248Z 16005KT 10/03 A3003 RMK A01 T01020032  RH  061%=      5-min Rain = 0
KCO1 151249Z 15005KT 10/03 A3003 RMK A01 T01030032  RH  061%=      5-min Rain = 0
KCO1 151250Z 16005KT 10/03 A3003 RMK A01 T01030032  RH  061%=      5-min Rain = 0
KCO1 151251Z 16004KT 10/03 A3003 RMK A01 T01030032  RH  061%=      5-min Rain = 0
KCO1 151252Z 14003KT 10/03 A3003 RMK A01 T01030032  RH  061%=      5-min Rain = 0
KCO1 151253Z 13004KT 10/03 A3003 RMK A01 T01030032  RH  062%=      5-min Rain = 0
KCO1 151254Z 14004KT 10/03 A3003 RMK A01 T01030033  RH  062%=      5-min Rain = 0
KCO1 151255Z 15003KT 10/03 A3004 RMK A01 T01030032  RH  062%=      5-min Rain = 0
KCO1 151256Z 15003KT 10/03 A3004 RMK A01 T01030033  RH  062%=      5-min Rain = 0
KCO1 151257Z 14003KT 10/03 A3003 RMK A01 T01030032  RH  062%=      5-min Rain = 0
KCO1 151258Z 14004KT 10/03 A3003 RMK A01 T01030033  RH  062%=      5-min Rain = 0
KCO1 151259Z 15004KT 10/03 A3003 RMK A01 T01030032  RH  062%=      5-min Rain = 0
KCO1 151300Z 15003KT 10/03 A3004 RMK A01 T01030032  RH  062%=      5-min Rain = 0
KCO1 151301Z 16003KT 10/03 A3004 RMK A01 T01020032  RH  062%=      5-min Rain = 0
KCO1 151302Z 15003KT 10/03 A3003 RMK A01 T01020032  RH  062%=      5-min Rain = 0
KCO1 151303Z 14003KT 10/03 A3003 RMK A01 T01020032  RH  062%=      5-min Rain = 0
KCO1 151304Z 15001KT 10/03 A3004 RMK A01 T01020032  RH  062%=      5-min Rain = 0
KCO1 151305Z 15000KT 10/03 A3004 RMK A01 T01020032  RH  062%=      5-min Rain = 0
KCO1 151306Z 03001KT 10/03 A3004 RMK A01 T01020032  RH  062%=      5-min Rain = 0
KCO1 151307Z 06002KT 10/03 A3004 RMK A01 T01010032  RH  062%=      5-min Rain = 0
KCO1 151308Z 12001KT 10/03 A3003 RMK A01 T01010032  RH  062%=      5-min Rain = 0
KCO1 151309Z 15001KT 10/03 A3003 RMK A01 T01010032  RH  062%=      5-min Rain = 0
KCO1 151310Z 15000KT 10/03 A3004 RMK A01 T01010032  RH  062%=      5-min Rain = 0
KCO1 151311Z 00000KT 10/03 A3004 RMK A01 T01010032  RH  062%=      5-min Rain = 0
KCO1 151312Z 05002KT 10/03 A3004 RMK A01 T01000032  RH  062%=      5-min Rain = 0
KCO1 151313Z 06003KT 10/03 A3004 RMK A01 T01000032  RH  062%=      5-min Rain = 0
KCO1 151314Z 08002KT 10/03 A3004 RMK A01 T00990031  RH  062%=      5-min Rain = 0
KCO1 151315Z 08001KT 10/03 A3004 RMK A01 T00990031  RH  063%=      5-min Rain = 0
KCO1 151316Z 05002KT 10/03 A3004 RMK A01 T00980031  RH  063%=      5-min Rain = 0
KCO1 151317Z 05003KT 10/03 A3004 RMK A01 T00980031  RH  063%=      5-min Rain = 0
KCO1 151318Z 06003KT 10/03 A3004 RMK A01 T00970031  RH  063%=      5-min Rain = 0
KCO1 151319Z 07002KT 10/03 A3004 RMK A01 T00960030  RH  063%=      5-min Rain = 0
KCO1 151320Z 07001KT 10/03 A3004 RMK A01 T00960030  RH  064%=      5-min Rain = 0
KCO1 151321Z 07002KT 10/03 A3004 RMK A01 T00950030  RH  064%=      5-min Rain = 0
KCO1 151322Z 08002KT 10/03 A3004 RMK A01 T00950030  RH  064%=      5-min Rain = 0
KCO1 151323Z 08002KT 10/03 A3004 RMK A01 T00950030  RH  064%=      5-min Rain = 0
KCO1 151324Z 08002KT 10/03 A3004 RMK A01 T00950030  RH  064%=      5-min Rain = 0
KCO1 151325Z 08001KT 10/03 A3004 RMK A01 T00950029  RH  064%=      5-min Rain = 0
KCO1 151326Z 08001KT 10/03 A3004 RMK A01 T00950030  RH  064%=      5-min Rain = 0
KCO1 151327Z 06001KT 10/03 A3004 RMK A01 T00950030  RH  064%=      5-min Rain = 0
KCO1 151328Z 04001KT 10/03 A3004 RMK A01 T00950030  RH  064%=      5-min Rain = 0
KCO1 151329Z 06002KT 10/03 A3004 RMK A01 T00950030  RH  064%=      5-min Rain = 0
KCO1 151330Z 07002KT 10/03 A3004 RMK A01 T00950030  RH  064%=      5-min Rain = 0
KCO1 151331Z 07001KT 09/03 A3004 RMK A01 T00940029  RH  064%=      5-min Rain = 0
KCO1 151332Z 07001KT 10/03 A3004 RMK A01 T00950029  RH  064%=      5-min Rain = 0
KCO1 151333Z 08002KT 09/03 A3004 RMK A01 T00940029  RH  064%=      5-min Rain = 0
KCO1 151334Z 09002KT 09/03 A3004 RMK A01 T00940029  RH  064%=      5-min Rain = 0
KCO1 151335Z 09002KT 09/03 A3004 RMK A01 T00940029  RH  064%=      5-min Rain = 0
KCO1 151336Z 09001KT 09/03 A3004 RMK A01 T00940029  RH  064%=      5-min Rain = 0
KCO1 151337Z 09001KT 09/03 A3004 RMK A01 T00930029  RH  064%=      5-min Rain = 0
KCO1 151338Z 05001KT 09/03 A3004 RMK A01 T00930030  RH  064%=      5-min Rain = 0
KCO1 151339Z 04000KT 09/03 A3004 RMK A01 T00930029  RH  064%=      5-min Rain = 0
KCO1 151340Z 05001KT 09/03 A3004 RMK A01 T00930029  RH  064%=      5-min Rain = 0
KCO1 151341Z 07002KT 09/03 A3004 RMK A01 T00930029  RH  064%=      5-min Rain = 0
KCO1 151342Z 07002KT 09/03 A3004 RMK A01 T00930029  RH  064%=      5-min Rain = 0
KCO1 151343Z 06001KT 09/03 A3004 RMK A01 T00930029  RH  064%=      5-min Rain = 0
KCO1 151344Z 03001KT 09/03 A3004 RMK A01 T00940029  RH  064%=      5-min Rain = 0
KCO1 151345Z 03002KT 09/03 A3004 RMK A01 T00930029  RH  064%=      5-min Rain = 0
KCO1 151346Z 04002KT 09/03 A3005 RMK A01 T00930030  RH  064%=      5-min Rain = 0
KCO1 151347Z 04001KT 09/03 A3005 RMK A01 T00930029  RH  064%=      5-min Rain = 0
KCO1 151348Z 04001KT 09/03 A3005 RMK A01 T00930029  RH  064%=      5-min Rain = 0
KCO1 151349Z 05003KT 09/03 A3005 RMK A01 T00920029  RH  065%=      5-min Rain = 0
KCO1 151350Z 04003KT 09/03 A3005 RMK A01 T00910028  RH  065%=      5-min Rain = 0
KCO1 151351Z 02003KT 09/03 A3005 RMK A01 T00900028  RH  065%=      5-min Rain = 0
KCO1 151352Z 03004KT 09/03 A3005 RMK A01 T00890028  RH  066%=      5-min Rain = 0
KCO1 151353Z 03004KT 09/03 A3005 RMK A01 T00880029  RH  067%=      5-min Rain = 0
KCO1 151354Z 04005KT 09/03 A3005 RMK A01 T00870029  RH  067%=      5-min Rain = 0
KCO1 151355Z 05004KT 09/03 A3005 RMK A01 T00870029  RH  067%=      5-min Rain = 0
KCO1 151356Z 05002KT 09/03 A3005 RMK A01 T00870030  RH  067%=      5-min Rain = 0
KCO1 151357Z 04002KT 09/03 A3005 RMK A01 T00860030  RH  068%=      5-min Rain = 0
KCO1 151358Z 01002KT 09/03 A3005 RMK A01 T00870031  RH  068%=      5-min Rain = 0
KCO1 151359Z 02002KT 09/03 A3005 RMK A01 T00880032  RH  068%=      5-min Rain = 0
KCO1 151400Z 04002KT 09/03 A3005 RMK A01 T00890032  RH  067%=      5-min Rain = 0
KCO1 151401Z 04002KT 09/03 A3005 RMK A01 T00900032  RH  067%=      5-min Rain = 0
KCO1 151402Z 05003KT 09/03 A3005 RMK A01 T00890031  RH  067%=      5-min Rain = 0
KCO1 151403Z 06003KT 09/03 A3005 RMK A01 T00900031  RH  067%=      5-min Rain = 0
KCO1 151404Z 06003KT 09/03 A3005 RMK A01 T00890031  RH  067%=      5-min Rain = 0
KCO1 151405Z 05003KT 09/03 A3005 RMK A01 T00890031  RH  067%=      5-min Rain = 0
KCO1 151406Z 04002KT 09/03 A3005 RMK A01 T00890032  RH  067%=      5-min Rain = 0
KCO1 151407Z 03002KT 09/03 A3005 RMK A01 T00890032  RH  068%=      5-min Rain = 0
KCO1 151408Z 05003KT 09/03 A3005 RMK A01 T00890033  RH  068%=      5-min Rain = 0
KCO1 151409Z 06003KT 09/03 A3005 RMK A01 T00900034  RH  068%=      5-min Rain = 0
KCO1 151410Z 07003KT 09/03 A3005 RMK A01 T00900034  RH  068%=      5-min Rain = 0
KCO1 151411Z 07001KT 09/03 A3005 RMK A01 T00900034  RH  068%=      5-min Rain = 0
KCO1 151412Z 03001KT 09/03 A3005 RMK A01 T00900034  RH  068%=      5-min Rain = 0
KCO1 151413Z 03002KT 09/04 A3005 RMK A01 T00920036  RH  068%=      5-min Rain = 0
KCO1 151414Z 06003KT 09/04 A3005 RMK A01 T00930036  RH  068%=      5-min Rain = 0
KCO1 151415Z 06003KT 09/04 A3005 RMK A01 T00940036  RH  067%=      5-min Rain = 0
KCO1 151416Z 07002KT 09/04 A3005 RMK A01 T00940037  RH  067%=      5-min Rain = 0
KCO1 151417Z 07001KT 09/04 A3005 RMK A01 T00940037  RH  068%=      5-min Rain = 0
KCO1 151418Z 07001KT 10/04 A3005 RMK A01 T00950037  RH  067%=      5-min Rain = 0
KCO1 151419Z 07002KT 10/04 A3005 RMK A01 T00950037  RH  067%=      5-min Rain = 0
KCO1 151420Z 08002KT 10/04 A3005 RMK A01 T00950037  RH  067%=      5-min Rain = 0
KCO1 151421Z 09002KT 10/04 A3005 RMK A01 T00960038  RH  067%=      5-min Rain = 0
KCO1 151422Z 09002KT 10/04 A3005 RMK A01 T00960039  RH  067%=      5-min Rain = 0
KCO1 151423Z 07002KT 10/04 A3005 RMK A01 T00970040  RH  068%=      5-min Rain = 0
KCO1 151424Z 07002KT 10/04 A3005 RMK A01 T00980040  RH  067%=      5-min Rain = 0
KCO1 151425Z 07002KT 10/04 A3005 RMK A01 T00980040  RH  067%=      5-min Rain = 0
KCO1 151426Z 08002KT 10/04 A3005 RMK A01 T00990039  RH  066%=      5-min Rain = 0
KCO1 151427Z 09003KT 10/04 A3005 RMK A01 T01000040  RH  066%=      5-min Rain = 0
KCO1 151428Z 10004KT 10/04 A3005 RMK A01 T01000040  RH  066%=      5-min Rain = 0
KCO1 151429Z 09004KT 10/04 A3005 RMK A01 T01010040  RH  066%=      5-min Rain = 0
KCO1 151430Z 09004KT 10/04 A3005 RMK A01 T01010040  RH  066%=      5-min Rain = 0
KCO1 151431Z 09005KT 10/04 A3005 RMK A01 T01020040  RH  066%=      5-min Rain = 0
KCO1 151432Z 09004KT 10/04 A3005 RMK A01 T01030041  RH  065%=      5-min Rain = 0
KCO1 151433Z 09003KT 10/04 A3006 RMK A01 T01040041  RH  065%=      5-min Rain = 0
KCO1 151434Z 09002KT 11/04 A3006 RMK A01 T01050042  RH  065%=      5-min Rain = 0
KCO1 151435Z 10003KT 11/04 A3006 RMK A01 T01070044  RH  065%=      5-min Rain = 0
KCO1 151436Z 10004KT 11/05 A3006 RMK A01 T01090046  RH  065%=      5-min Rain = 0
KCO1 151437Z 10004KT 11/05 A3006 RMK A01 T01110047  RH  065%=      5-min Rain = 0
KCO1 151438Z 10005KT 11/05 A3005 RMK A01 T01120048  RH  065%=      5-min Rain = 0
KCO1 151439Z 10005KT 11/05 A3005 RMK A01 T01130050  RH  065%=      5-min Rain = 0
KCO1 151440Z 10004KT 11/05 A3005 RMK A01 T01140051  RH  065%=      5-min Rain = 0
KCO1 151441Z 09004KT 12/05 A3006 RMK A01 T01150053  RH  066%=      5-min Rain = 0
KCO1 151442Z 08003KT 12/05 A3006 RMK A01 T01160054  RH  066%=      5-min Rain = 0
KCO1 151443Z 08003KT 12/06 A3006 RMK A01 T01170056  RH  066%=      5-min Rain = 0
KCO1 151444Z 08003KT 12/06 A3006 RMK A01 T01190058  RH  066%=      5-min Rain = 0
KCO1 151445Z 09003KT 12/06 A3005 RMK A01 T01210059  RH  066%=      5-min Rain = 0
KCO1 151446Z 10003KT 12/06 A3005 RMK A01 T01220061  RH  066%=      5-min Rain = 0
KCO1 151447Z 11004KT 12/06 A3005 RMK A01 T01230062  RH  066%=      5-min Rain = 0
KCO1 151448Z 11003KT 12/06 A3005 RMK A01 T01240063  RH  066%=      5-min Rain = 0
KCO1 151449Z 11003KT 13/06 A3006 RMK A01 T01250063  RH  066%=      5-min Rain = 0
KCO1 151450Z 10004KT 13/06 A3006 RMK A01 T01260064  RH  066%=      5-min Rain = 0
KCO1 151451Z 10004KT 13/06 A3006 RMK A01 T01280064  RH  065%=      5-min Rain = 0
KCO1 151452Z 10004KT 13/06 A3006 RMK A01 T01300064  RH  064%=      5-min Rain = 0
KCO1 151453Z 09003KT 13/06 A3006 RMK A01 T01310064  RH  064%=      5-min Rain = 0
KCO1 151454Z 09005KT 13/06 A3005 RMK A01 T01320064  RH  063%=      5-min Rain = 0
KCO1 151455Z 09004KT 13/06 A3005 RMK A01 T01330064  RH  063%=      5-min Rain = 0
KCO1 151456Z 08003KT 13/07 A3006 RMK A01 T01340065  RH  063%=      5-min Rain = 0
KCO1 151457Z 09003KT 14/07 A3006 RMK A01 T01350065  RH  062%=      5-min Rain = 0
KCO1 151458Z 09003KT 14/07 A3006 RMK A01 T01360066  RH  062%=      5-min Rain = 0
KCO1 151459Z 10005KT 14/07 A3006 RMK A01 T01370066  RH  062%=      5-min Rain = 0
KCO1 151500Z 10005KT 14/07 A3005 RMK A01 T01370067  RH  062%=      5-min Rain = 0
KCO1 151501Z 10005KT 14/07 A3005 RMK A01 T01370068  RH  063%=      5-min Rain = 0
KCO1 151502Z 10004KT 14/07 A3006 RMK A01 T01390069  RH  063%=      5-min Rain = 0
KCO1 151503Z 10003KT 14/07 A3006 RMK A01 T01400070  RH  063%=      5-min Rain = 0
KCO1 151504Z 10002KT 14/07 A3006 RMK A01 T01400070  RH  063%=      5-min Rain = 0
KCO1 151505Z 08002KT 14/07 A3006 RMK A01 T01410071  RH  062%=      5-min Rain = 0
KCO1 151506Z 07003KT 14/07 A3006 RMK A01 T01420071  RH  062%=      5-min Rain = 0
KCO1 151507Z 08003KT 14/07 A3006 RMK A01 T01420071  RH  063%=      5-min Rain = 0
KCO1 151508Z 09003KT 14/07 A3006 RMK A01 T01420073  RH  063%=      5-min Rain = 0
KCO1 151509Z 08003KT 14/07 A3005 RMK A01 T01430073  RH  063%=      5-min Rain = 0
KCO1 151510Z 08004KT 14/07 A3006 RMK A01 T01440074  RH  063%=      5-min Rain = 0
KCO1 151511Z 09004KT 15/08 A3006 RMK A01 T01450075  RH  063%=      5-min Rain = 0
KCO1 151512Z 09004KT 15/08 A3006 RMK A01 T01470076  RH  062%=      5-min Rain = 0
KCO1 151513Z 09005KT 15/08 A3006 RMK A01 T01490077  RH  062%=      5-min Rain = 0
KCO1 151514Z 07003KT 15/08 A3006 RMK A01 T01500075  RH  061%=      5-min Rain = 0
KCO1 151515Z 07005KT 15/08 A3006 RMK A01 T01510077  RH  061%=      5-min Rain = 0
KCO1 151516Z 07005KT 15/08 A3006 RMK A01 T01510078  RH  061%=      5-min Rain = 0
KCO1 151517Z 07004KT 15/08 A3006 RMK A01 T01510077  RH  061%=      5-min Rain = 0
KCO1 151518Z 07003KT 15/08 A3006 RMK A01 T01510078  RH  062%=      5-min Rain = 0
KCO1 151519Z 07004KT 15/08 A3006 RMK A01 T01520078  RH  061%=      5-min Rain = 0
KCO1 151520Z 07005KT 15/08 A3006 RMK A01 T01530078  RH  061%=      5-min Rain = 0
KCO1 151521Z 07005KT 15/08 A3006 RMK A01 T01540077  RH  060%=      5-min Rain = 0
KCO1 151522Z 07004KT 15/08 A3006 RMK A01 T01540077  RH  060%=      5-min Rain = 0
KCO1 151523Z 08005KT 16/08 A3006 RMK A01 T01550078  RH  060%=      5-min Rain = 0
KCO1 151524Z 08005KT 16/08 A3006 RMK A01 T01560078  RH  060%=      5-min Rain = 0
KCO1 151525Z 08005KT 16/08 A3006 RMK A01 T01570077  RH  059%=      5-min Rain = 0
KCO1 151526Z 08004KT 16/08 A3006 RMK A01 T01580078  RH  059%=      5-min Rain = 0
KCO1 151527Z 08005KT 16/08 A3006 RMK A01 T01600079  RH  059%=      5-min Rain = 0
KCO1 151528Z 08004KT 16/08 A3006 RMK A01 T01610079  RH  058%=      5-min Rain = 0
KCO1 151529Z 07005KT 16/08 A3006 RMK A01 T01630078  RH  057%=      5-min Rain = 0
KCO1 151530Z 07005KT 16/08 A3006 RMK A01 T01640078  RH  057%=      5-min Rain = 0
KCO1 151531Z 07007KT 16/08 A3006 RMK A01 T01640077  RH  056%=      5-min Rain = 0
KCO1 151532Z 08006KT 16/08 A3006 RMK A01 T01640076  RH  056%=      5-min Rain = 0
KCO1 151533Z 08004KT 16/08 A3006 RMK A01 T01640077  RH  056%=      5-min Rain = 0
KCO1 151534Z 08005KT 16/08 A3006 RMK A01 T01640077  RH  056%=      5-min Rain = 0
KCO1 151535Z 08005KT 17/08 A3006 RMK A01 T01650079  RH  057%=      5-min Rain = 0
KCO1 151536Z 09006KT 17/08 A3006 RMK A01 T01660078  RH  056%=      5-min Rain = 0
KCO1 151537Z 09005KT 17/08 A3006 RMK A01 T01650077  RH  056%=      5-min Rain = 0
KCO1 151538Z 08005KT 17/08 A3006 RMK A01 T01650078  RH  056%=      5-min Rain = 0
KCO1 151539Z 09004KT 17/08 A3006 RMK A01 T01650079  RH  056%=      5-min Rain = 0
KCO1 151540Z 09004KT 17/08 A3006 RMK A01 T01660080  RH  057%=      5-min Rain = 0
KCO1 151541Z 09006KT 17/08 A3006 RMK A01 T01670080  RH  057%=      5-min Rain = 0
KCO1 151542Z 09005KT 17/08 A3006 RMK A01 T01670081  RH  057%=      5-min Rain = 0
KCO1 151543Z 08006KT 17/08 A3006 RMK A01 T01670082  RH  057%=      5-min Rain = 0
KCO1 151544Z 08006KT 17/08 A3006 RMK A01 T01680081  RH  057%=      5-min Rain = 0
KCO1 151545Z 08006KT 17/08 A3006 RMK A01 T01680082  RH  057%=      5-min Rain = 0
KCO1 151546Z 08004KT 17/08 A3006 RMK A01 T01680081  RH  057%=      5-min Rain = 0
KCO1 151547Z 09006KT 17/08 A3006 RMK A01 T01680082  RH  057%=      5-min Rain = 0
KCO1 151548Z 09006KT 17/08 A3006 RMK A01 T01680082  RH  057%=      5-min Rain = 0
KCO1 151549Z 08006KT 17/08 A3006 RMK A01 T01670083  RH  057%=      5-min Rain = 0
KCO1 151550Z 09006KT 17/08 A3006 RMK A01 T01670083  RH  057%=      5-min Rain = 0
KCO1 151551Z 09006KT 17/08 A3006 RMK A01 T01670083  RH  058%=      5-min Rain = 0
KCO1 151552Z 09005KT 17/09 A3006 RMK A01 T01670085  RH  058%=      5-min Rain = 0
KCO1 151553Z 08005KT 17/09 A3006 RMK A01 T01670086  RH  059%=      5-min Rain = 0
KCO1 151554Z 10006KT 17/09 A3006 RMK A01 T01670086  RH  059%=      5-min Rain = 0
KCO1 151555Z 10006KT 17/09 A3006 RMK A01 T01670086  RH  058%=      5-min Rain = 0
KCO1 151556Z 09006KT 17/09 A3006 RMK A01 T01670085  RH  058%=      5-min Rain = 0
KCO1 151557Z 08005KT 17/09 A3006 RMK A01 T01670087  RH  059%=      5-min Rain = 0
KCO1 151558Z 08006KT 17/09 A3006 RMK A01 T01670088  RH  059%=      5-min Rain = 0
KCO1 151559Z 09006KT 17/09 A3006 RMK A01 T01670088  RH  059%=      5-min Rain = 0
KCO1 151600Z 09006KT 17/09 A3006 RMK A01 T01680088  RH  059%=      5-min Rain = 0
KCO1 151601Z 09005KT 17/09 A3006 RMK A01 T01670088  RH  059%=      5-min Rain = 0
KCO1 151602Z 08006KT 17/09 A3006 RMK A01 T01670089  RH  060%=      5-min Rain = 0
KCO1 151603Z 08006KT 17/09 A3006 RMK A01 T01670089  RH  060%=      5-min Rain = 0
KCO1 151604Z 08007KT 17/09 A3006 RMK A01 T01680090  RH  060%=      5-min Rain = 0
KCO1 151605Z 08006KT 17/09 A3006 RMK A01 T01670090  RH  060%=      5-min Rain = 0
KCO1 151606Z 08006KT 17/09 A3006 RMK A01 T01670091  RH  061%=      5-min Rain = 0
KCO1 151607Z 09006KT 17/09 A3006 RMK A01 T01670090  RH  060%=      5-min Rain = 0
KCO1 151608Z 09006KT 17/09 A3006 RMK A01 T01680090  RH  060%=      5-min Rain = 0
KCO1 151609Z 08006KT 17/09 A3006 RMK A01 T01680091  RH  060%=      5-min Rain = 0
KCO1 151610Z 09006KT 17/09 A3006 RMK A01 T01680090  RH  060%=      5-min Rain = 0
KCO1 151611Z 09008KT 17/09 A3006 RMK A01 T01680090  RH  060%=      5-min Rain = 0
KCO1 151612Z 10007KT 17/09 A3006 RMK A01 T01680090  RH  060%=      5-min Rain = 0
KCO1 151613Z 10007KT 17/09 A3006 RMK A01 T01690090  RH  060%=      5-min Rain = 0
KCO1 151614Z 09007KT 17/09 A3006 RMK A01 T01690091  RH  060%=      5-min Rain = 0
KCO1 151615Z 09006KT 17/09 A3006 RMK A01 T01690091  RH  060%=      5-min Rain = 0
KCO1 151616Z 09003KT 17/09 A3006 RMK A01 T01700092  RH  060%=      5-min Rain = 0
KCO1 151617Z 09004KT 17/09 A3006 RMK A01 T01710092  RH  060%=      5-min Rain = 0
KCO1 151618Z 09005KT 17/09 A3006 RMK A01 T01720092  RH  059%=      5-min Rain = 0
KCO1 151619Z 09005KT 17/09 A3006 RMK A01 T01720092  RH  059%=      5-min Rain = 0
KCO1 151620Z 09005KT 17/09 A3006 RMK A01 T01720092  RH  059%=      5-min Rain = 0
KCO1 151621Z 07005KT 17/09 A3006 RMK A01 T01720092  RH  059%=      5-min Rain = 0
KCO1 151622Z 08005KT 17/09 A3006 RMK A01 T01720093  RH  060%=      5-min Rain = 0
KCO1 151623Z 08004KT 17/09 A3006 RMK A01 T01720093  RH  060%=      5-min Rain = 0
KCO1 151624Z 08006KT 17/09 A3006 RMK A01 T01730094  RH  060%=      5-min Rain = 0
KCO1 151625Z 08006KT 17/09 A3006 RMK A01 T01730094  RH  059%=      5-min Rain = 0
KCO1 151626Z 09007KT 17/09 A3006 RMK A01 T01730093  RH  059%=      5-min Rain = 0
KCO1 151627Z 09007KT 17/09 A3006 RMK A01 T01720093  RH  060%=      5-min Rain = 0
KCO1 151628Z 10007KT 17/09 A3006 RMK A01 T01730094  RH  060%=      5-min Rain = 0
KCO1 151629Z 10007KT 17/09 A3006 RMK A01 T01730094  RH  060%=      5-min Rain = 0
KCO1 151630Z 10007KT 17/09 A3006 RMK A01 T01720093  RH  060%=      5-min Rain = 0
KCO1 151631Z 10007KT 17/09 A3006 RMK A01 T01730094  RH  060%=      5-min Rain = 0
KCO1 151632Z 10008KT 17/10 A3006 RMK A01 T01730095  RH  060%=      5-min Rain = 0
KCO1 151633Z 09009KT 17/10 A3006 RMK A01 T01730095  RH  060%=      5-min Rain = 0
KCO1 151634Z 09009KT 17/10 A3006 RMK A01 T01730095  RH  060%=      5-min Rain = 0
KCO1 151635Z 10008KT 17/10 A3006 RMK A01 T01740096  RH  060%=      5-min Rain = 0
KCO1 151636Z 09005KT 17/10 A3006 RMK A01 T01740096  RH  060%=      5-min Rain = 0
KCO1 151637Z 10008KT 18/10 A3006 RMK A01 T01750097  RH  060%=      5-min Rain = 0
KCO1 151638Z 10009KT 18/10 A3006 RMK A01 T01750097  RH  060%=      5-min Rain = 0
KCO1 151639Z 10006KT 17/10 A3006 RMK A01 T01740097  RH  061%=      5-min Rain = 0
KCO1 151640Z 11006KT 17/10 A3006 RMK A01 T01740098  RH  061%=      5-min Rain = 0
KCO1 151641Z 10006KT 17/10 A3006 RMK A01 T01740097  RH  061%=      5-min Rain = 0
KCO1 151642Z 10005KT 18/10 A3006 RMK A01 T01750097  RH  060%=      5-min Rain = 0
KCO1 151643Z 11007KT 18/10 A3006 RMK A01 T01750097  RH  060%=      5-min Rain = 0
KCO1 151644Z 10006KT 18/10 A3006 RMK A01 T01760097  RH  060%=      5-min Rain = 0
KCO1 151645Z 10007KT 18/10 A3006 RMK A01 T01760098  RH  060%=      5-min Rain = 0
KCO1 151646Z 11007KT 18/10 A3006 RMK A01 T01770098  RH  060%=      5-min Rain = 0
KCO1 151647Z 10007KT 18/10 A3006 RMK A01 T01760097  RH  060%=      5-min Rain = 0
KCO1 151648Z 10006KT 18/10 A3006 RMK A01 T01770097  RH  060%=      5-min Rain = 0
KCO1 151649Z 10006KT 18/10 A3006 RMK A01 T01770098  RH  060%=      5-min Rain = 0
KCO1 151650Z 10006KT 18/10 A3006 RMK A01 T01770098  RH  060%=      5-min Rain = 0
KCO1 151651Z 09008KT 18/10 A3006 RMK A01 T01770099  RH  060%=      5-min Rain = 0
KCO1 151652Z 10008KT 18/10 A3006 RMK A01 T01770098  RH  060%=      5-min Rain = 0
KCO1 151653Z 10007KT 18/10 A3006 RMK A01 T01770099  RH  060%=      5-min Rain = 0
KCO1 151654Z 10006KT 18/10 A3006 RMK A01 T01780099  RH  060%=      5-min Rain = 0
KCO1 151655Z 10006KT 18/10 A3006 RMK A01 T01790100  RH  060%=      5-min Rain = 0
KCO1 151656Z 09005KT 18/10 A3006 RMK A01 T01780099  RH  060%=      5-min Rain = 0
KCO1 151657Z 09007KT 18/10 A3006 RMK A01 T01790101  RH  060%=      5-min Rain = 0
KCO1 151658Z 09007KT 18/10 A3006 RMK A01 T01790101  RH  060%=      5-min Rain = 0
KCO1 151659Z 11006KT 18/10 A3006 RMK A01 T01790102  RH  060%=      5-min Rain = 0
KCO1 151700Z 09007KT 18/10 A3006 RMK A01 T01800102  RH  060%=      5-min Rain = 0
KCO1 151701Z 10006KT 18/10 A3006 RMK A01 T01800102  RH  060%=      5-min Rain = 0
KCO1 151702Z 10007KT 18/10 A3006 RMK A01 T01810102  RH  060%=      5-min Rain = 0
KCO1 151703Z 10008KT 18/10 A3006 RMK A01 T01810102  RH  060%=      5-min Rain = 0
KCO1 151704Z 09007KT 18/10 A3006 RMK A01 T01810102  RH  060%=      5-min Rain = 0
KCO1 151705Z 10006KT 18/10 A3006 RMK A01 T01810102  RH  060%=      5-min Rain = 0
KCO1 151706Z 09006KT 18/10 A3006 RMK A01 T01810103  RH  060%=      5-min Rain = 0
KCO1 151707Z 10007KT 18/10 A3006 RMK A01 T01810103  RH  060%=      5-min Rain = 0
KCO1 151708Z 10008KT 18/10 A3006 RMK A01 T01810103  RH  060%=      5-min Rain = 0
KCO1 151709Z 10008KT 18/10 A3006 RMK A01 T01810103  RH  060%=      5-min Rain = 0
KCO1 151710Z 10007KT 18/10 A3006 RMK A01 T01820104  RH  060%=      5-min Rain = 0
KCO1 151711Z 10008KT 18/10 A3006 RMK A01 T01820103  RH  060%=      5-min Rain = 0
KCO1 151712Z 10007KT 18/10 A3006 RMK A01 T01830103  RH  060%=      5-min Rain = 0
KCO1 151713Z 10006KT 18/10 A3006 RMK A01 T01840104  RH  060%=      5-min Rain = 0
KCO1 151714Z 09006KT 19/11 A3006 RMK A01 T01850105  RH  059%=      5-min Rain = 0
KCO1 151715Z 09006KT 19/10 A3006 RMK A01 T01850104  RH  059%=      5-min Rain = 0
KCO1 151716Z 09006KT 19/10 A3006 RMK A01 T01850104  RH  059%=      5-min Rain = 0
KCO1 151717Z 08005KT 19/10 A3006 RMK A01 T01850104  RH  059%=      5-min Rain = 0
KCO1 151718Z 08005KT 19/11 A3006 RMK A01 T01850105  RH  059%=      5-min Rain = 0
KCO1 151719Z 09005KT 19/11 A3006 RMK A01 T01870105  RH  059%=      5-min Rain = 0
KCO1 151720Z 08006KT 19/11 A3006 RMK A01 T01880105  RH  058%=      5-min Rain = 0
KCO1 151721Z 08006KT 19/10 A3006 RMK A01 T01890104  RH  058%=      5-min Rain = 0
KCO1 151722Z 09008KT 19/10 A3006 RMK A01 T01890104  RH  058%=      5-min Rain = 0
KCO1 151723Z 09008KT 19/10 A3006 RMK A01 T01890104  RH  057%=      5-min Rain = 0
KCO1 151724Z 09008KT 19/10 A3006 RMK A01 T01890104  RH  058%=      5-min Rain = 0
KCO1 151725Z 09007KT 19/10 A3006 RMK A01 T01900104  RH  058%=      5-min Rain = 0
KCO1 151726Z 08007KT 19/11 A3006 RMK A01 T01900105  RH  058%=      5-min Rain = 0
KCO1 151727Z 09008KT 19/10 A3006 RMK A01 T01910104  RH  057%=      5-min Rain = 0
KCO1 151728Z 09007KT 19/10 A3006 RMK A01 T01910104  RH  057%=      5-min Rain = 0
KCO1 151729Z 09007KT 19/11 A3006 RMK A01 T01930105  RH  057%=      5-min Rain = 0
KCO1 151730Z 10007KT 19/11 A3006 RMK A01 T01940105  RH  056%=      5-min Rain = 0
KCO1 151731Z 10007KT 20/11 A3006 RMK A01 T01950105  RH  056%=      5-min Rain = 0
KCO1 151732Z 09007KT 20/11 A3006 RMK A01 T01950105  RH  056%=      5-min Rain = 0
KCO1 151733Z 09006KT 20/10 A3005 RMK A01 T01950104  RH  056%=      5-min Rain = 0
KCO1 151734Z 11007KT 20/11 A3005 RMK A01 T01960105  RH  056%=      5-min Rain = 0
KCO1 151735Z 09006KT 20/11 A3005 RMK A01 T01970105  RH  055%=      5-min Rain = 0
KCO1 151736Z 09007KT 20/11 A3005 RMK A01 T01980105  RH  055%=      5-min Rain = 0
KCO1 151737Z 10007KT 20/10 A3005 RMK A01 T01990104  RH  055%=      5-min Rain = 0
KCO1 151738Z 10008KT 20/10 A3006 RMK A01 T01990104  RH  054%=      5-min Rain = 0
KCO1 151739Z 10007KT 20/10 A3006 RMK A01 T01990104  RH  054%=      5-min Rain = 0
KCO1 151740Z 11005KT 20/10 A3006 RMK A01 T01990104  RH  054%=      5-min Rain = 0
KCO1 151741Z 11007KT 20/10 A3006 RMK A01 T02010104  RH  054%=      5-min Rain = 0
KCO1 151742Z 10005KT 20/10 A3005 RMK A01 T02020103  RH  053%=      5-min Rain = 0
KCO1 151743Z 09007KT 20/10 A3005 RMK A01 T02020104  RH  053%=      5-min Rain = 0
KCO1 151744Z 10007KT 20/11 A3005 RMK A01 T02030105  RH  053%=      5-min Rain = 0
KCO1 151745Z 09006KT 20/11 A3005 RMK A01 T02030105  RH  053%=      5-min Rain = 0
KCO1 151746Z 09007KT 20/11 A3005 RMK A01 T02030105  RH  053%=      5-min Rain = 0
KCO1 151747Z 11007KT 20/10 A3005 RMK A01 T02040104  RH  053%=      5-min Rain = 0
KCO1 151748Z 10006KT 21/10 A3005 RMK A01 T02050104  RH  053%=      5-min Rain = 0
KCO1 151749Z 11006KT 21/10 A3005 RMK A01 T02070104  RH  052%=      5-min Rain = 0
KCO1 151750Z 11007KT 21/10 A3005 RMK A01 T02070102  RH  051%=      5-min Rain = 0
KCO1 151751Z 12007KT 21/10 A3005 RMK A01 T02080102  RH  050%=      5-min Rain = 0
KCO1 151752Z 12008KT 21/10 A3005 RMK A01 T02090102  RH  050%=      5-min Rain = 0
KCO1 151753Z 12007KT 21/10 A3005 RMK A01 T02090102  RH  050%=      5-min Rain = 0
KCO1 151754Z 11006KT 21/10 A3005 RMK A01 T02090101  RH  050%=      5-min Rain = 0
KCO1 151755Z 10006KT 21/10 A3005 RMK A01 T02090103  RH  051%=      5-min Rain = 0
KCO1 151756Z 12007KT 21/10 A3005 RMK A01 T02090103  RH  051%=      5-min Rain = 0
KCO1 151757Z 11007KT 21/10 A3005 RMK A01 T02100103  RH  051%=      5-min Rain = 0
KCO1 151758Z 11007KT 21/10 A3005 RMK A01 T02090104  RH  051%=      5-min Rain = 0
KCO1 151759Z 11007KT 21/10 A3005 RMK A01 T02090104  RH  051%=      5-min Rain = 0
KCO1 151800Z 11007KT 21/10 A3005 RMK A01 T02090103  RH  051%=      5-min Rain = 0
KCO1 151801Z 12007KT 21/10 A3005 RMK A01 T02100103  RH  051%=      5-min Rain = 0
KCO1 151802Z 12007KT 21/10 A3005 RMK A01 T02100103  RH  050%=      5-min Rain = 0
KCO1 151803Z 11006KT 21/10 A3005 RMK A01 T02090103  RH  051%=      5-min Rain = 0
KCO1 151804Z 11007KT 21/10 A3005 RMK A01 T02080103  RH  051%=      5-min Rain = 0
KCO1 151805Z 10006KT 21/10 A3005 RMK A01 T02080103  RH  051%=      5-min Rain = 0
KCO1 151806Z 11006KT 21/10 A3005 RMK A01 T02090104  RH  051%=      5-min Rain = 0
KCO1 151807Z 11004KT 21/10 A3005 RMK A01 T02100103  RH  050%=      5-min Rain = 0
KCO1 151808Z 10006KT 21/10 A3005 RMK A01 T02110104  RH  050%=      5-min Rain = 0
KCO1 151809Z 11006KT 21/10 A3005 RMK A01 T02120103  RH  050%=      5-min Rain = 0
KCO1 151810Z 09004KT 21/10 A3005 RMK A01 T02130103  RH  049%=      5-min Rain = 0
KCO1 151811Z 08006KT 21/10 A3005 RMK A01 T02140104  RH  050%=      5-min Rain = 0
KCO1 151812Z 10007KT 21/10 A3005 RMK A01 T02140103  RH  049%=      5-min Rain = 0
KCO1 151813Z 10006KT 22/10 A3005 RMK A01 T02150102  RH  049%=      5-min Rain = 0
KCO1 151814Z 09004KT 22/10 A3005 RMK A01 T02150102  RH  049%=      5-min Rain = 0
KCO1 151815Z 10006KT 22/10 A3005 RMK A01 T02150103  RH  049%=      5-min Rain = 0
KCO1 151816Z 11005KT 22/10 A3005 RMK A01 T02160102  RH  048%=      5-min Rain = 0
KCO1 151817Z 10005KT 22/10 A3005 RMK A01 T02160102  RH  048%=      5-min Rain = 0
KCO1 151818Z 11005KT 22/10 A3004 RMK A01 T02170101  RH  048%=      5-min Rain = 0
KCO1 151819Z 10005KT 22/10 A3004 RMK A01 T02180101  RH  047%=      5-min Rain = 0
KCO1 151820Z 10005KT 22/10 A3004 RMK A01 T02190101  RH  047%=      5-min Rain = 0
KCO1 151821Z 10004KT 22/10 A3004 RMK A01 T02190100  RH  047%=      5-min Rain = 0
KCO1 151822Z 09005KT 22/10 A3004 RMK A01 T02190100  RH  047%=      5-min Rain = 0
KCO1 151823Z 09006KT 22/10 A3004 RMK A01 T02200101  RH  047%=      5-min Rain = 0
KCO1 151824Z 09005KT 22/10 A3004 RMK A01 T02200101  RH  047%=      5-min Rain = 0
KCO1 151825Z 09005KT 22/10 A3004 RMK A01 T02210101  RH  046%=      5-min Rain = 0
KCO1 151826Z 09004KT 22/10 A3004 RMK A01 T02230103  RH  046%=      5-min Rain = 0
KCO1 151827Z 11004KT 23/10 A3004 RMK A01 T02270104  RH  046%=      5-min Rain = 0
KCO1 151828Z 09004KT 23/10 A3004 RMK A01 T02280102  RH  045%=      5-min Rain = 0
KCO1 151829Z 08004KT 23/10 A3004 RMK A01 T02290101  RH  044%=      5-min Rain = 0
KCO1 151830Z 09004KT 23/10 A3003 RMK A01 T02290101  RH  044%=      5-min Rain = 0
KCO1 151831Z 09004KT 23/10 A3003 RMK A01 T02310102  RH  044%=      5-min Rain = 0
KCO1 151832Z 07004KT 23/10 A3003 RMK A01 T02330103  RH  044%=      5-min Rain = 0
KCO1 151833Z 08004KT 23/10 A3003 RMK A01 T02340104  RH  044%=      5-min Rain = 0
KCO1 151834Z 08004KT 23/10 A3003 RMK A01 T02340104  RH  044%=      5-min Rain = 0
KCO1 151835Z 08005KT 23/10 A3003 RMK A01 T02330103  RH  044%=      5-min Rain = 0
KCO1 151836Z 09006KT 23/10 A3003 RMK A01 T02310101  RH  044%=      5-min Rain = 0
KCO1 151837Z 10005KT 23/10 A3003 RMK A01 T02300099  RH  044%=      5-min Rain = 0
KCO1 151838Z 10003KT 23/10 A3003 RMK A01 T02310097  RH  043%=      5-min Rain = 0
KCO1 151839Z 07004KT 23/10 A3003 RMK A01 T02320100  RH  043%=      5-min Rain = 0
KCO1 151840Z 06004KT 23/10 A3003 RMK A01 T02340102  RH  043%=      5-min Rain = 0
KCO1 151841Z 05004KT 24/10 A3003 RMK A01 T02350104  RH  043%=      5-min Rain = 0
KCO1 151842Z 06005KT 24/11 A3003 RMK A01 T02390106  RH  043%=      5-min Rain = 0
KCO1 151843Z 06004KT 24/10 A3003 RMK A01 T02420103  RH  041%=      5-min Rain = 0
KCO1 151844Z 05005KT 24/10 A3003 RMK A01 T02420104  RH  042%=      5-min Rain = 0
KCO1 151845Z 07004KT 24/11 A3003 RMK A01 T02420105  RH  042%=      5-min Rain = 0
KCO1 151846Z 06004KT 24/10 A3003 RMK A01 T02400104  RH  042%=      5-min Rain = 0
KCO1 151847Z 05005KT 24/11 A3003 RMK A01 T02400105  RH  043%=      5-min Rain = 0
KCO1 151848Z 05004KT 24/10 A3003 RMK A01 T02400104  RH  042%=      5-min Rain = 0
KCO1 151849Z 04004KT 24/10 A3003 RMK A01 T02410104  RH  042%=      5-min Rain = 0
KCO1 151850Z 06006KT 24/10 A3002 RMK A01 T02410103  RH  042%=      5-min Rain = 0
KCO1 151851Z 06005KT 24/11 A3002 RMK A01 T02420105  RH  042%=      5-min Rain = 0
KCO1 151852Z 06006KT 24/11 A3002 RMK A01 T02440105  RH  041%=      5-min Rain = 0
KCO1 151853Z 06006KT 24/11 A3002 RMK A01 T02430105  RH  042%=      5-min Rain = 0
KCO1 151854Z 05005KT 24/11 A3002 RMK A01 T02410105  RH  042%=      5-min Rain = 0
KCO1 151855Z 06006KT 24/11 A3002 RMK A01 T02420105  RH  042%=      5-min Rain = 0
KCO1 151856Z 05006KT 24/11 A3001 RMK A01 T02410105  RH  042%=      5-min Rain = 0
KCO1 151857Z 05006KT 24/11 A3001 RMK A01 T02420105  RH  042%=      5-min Rain = 0
KCO1 151858Z 04006KT 24/11 A3001 RMK A01 T02420105  RH  042%=      5-min Rain = 0
KCO1 151859Z 03005KT 24/10 A3001 RMK A01 T02410104  RH  042%=      5-min Rain = 0
KCO1 151900Z 05006KT 24/10 A3001 RMK A01 T02410104  RH  042%=      5-min Rain = 0
KCO1 151901Z 04005KT 24/10 A3001 RMK A01 T02410103  RH  042%=      5-min Rain = 0
KCO1 151902Z 03004KT 24/10 A3001 RMK A01 T02400103  RH  042%=      5-min Rain = 0
KCO1 151903Z 03006KT 24/10 A3001 RMK A01 T02390103  RH  042%=      5-min Rain = 0
KCO1 151904Z 04006KT 24/10 A3001 RMK A01 T02390103  RH  042%=      5-min Rain = 0
KCO1 151905Z 05005KT 24/10 A3001 RMK A01 T02400102  RH  042%=      5-min Rain = 0
KCO1 151906Z 05005KT 24/10 A3001 RMK A01 T02410102  RH  041%=      5-min Rain = 0
KCO1 151907Z 04005KT 24/10 A3001 RMK A01 T02440103  RH  041%=      5-min Rain = 0
KCO1 151908Z 05005KT 24/10 A3001 RMK A01 T02440101  RH  040%=      5-min Rain = 0
KCO1 151909Z 05005KT 25/10 A3001 RMK A01 T02450103  RH  041%=      5-min Rain = 0
KCO1 151910Z 04005KT 25/10 A3001 RMK A01 T02480102  RH  040%=      5-min Rain = 0
KCO1 151911Z 04005KT 25/10 A3001 RMK A01 T02480101  RH  039%=      5-min Rain = 0
KCO1 151912Z 04006KT 25/10 A3001 RMK A01 T02490102  RH  039%=      5-min Rain = 0
KCO1 151913Z 04006KT 25/10 A3001 RMK A01 T02480101  RH  039%=      5-min Rain = 0
KCO1 151914Z 04006KT 25/10 A3001 RMK A01 T02480103  RH  040%=      5-min Rain = 0
KCO1 151915Z 04006KT 25/10 A30 RMK A01 T02480103  RH  040%=      5-min Rain = 0
KCO1 151916Z 04008KT 25/10 A30 RMK A01 T02490104  RH  040%=      5-min Rain = 0
KCO1 151917Z 04007KT 25/11 A30 RMK A01 T02490105  RH  040%=      5-min Rain = 0
KCO1 151918Z 04008KT 25/10 A30 RMK A01 T02490103  RH  040%=      5-min Rain = 0
KCO1 151919Z 04008KT 25/11 A30 RMK A01 T02500105  RH  040%=      5-min Rain = 0
KCO1 151920Z 05007KT 25/11 A30 RMK A01 T02530109  RH  040%=      5-min Rain = 0
KCO1 151921Z 04007KT 26/11 A30 RMK A01 T02570107  RH  039%=      5-min Rain = 0
KCO1 151922Z 05007KT 26/11 A30 RMK A01 T02580108  RH  039%=      5-min Rain = 0
KCO1 151923Z 04008KT 26/11 A30 RMK A01 T02590107  RH  039%=      5-min Rain = 0
KCO1 151924Z 05008KT 26/11 A30 RMK A01 T02560106  RH  039%=      5-min Rain = 0
KCO1 151925Z 05007KT 26/11 A30 RMK A01 T02550107  RH  039%=      5-min Rain = 0
KCO1 151926Z 05007KT 26/11 A30 RMK A01 T02560106  RH  039%=      5-min Rain = 0
KCO1 151927Z 05007KT 26/11 A2999 RMK A01 T02560106  RH  039%=      5-min Rain = 0
KCO1 151928Z 06006KT 26/11 A2999 RMK A01 T02550105  RH  039%=      5-min Rain = 0
KCO1 151929Z 05007KT 26/11 A2999 RMK A01 T02560106  RH  039%=      5-min Rain = 0
KCO1 151930Z 06006KT 26/11 A2999 RMK A01 T02550105  RH  039%=      5-min Rain = 0
KCO1 151931Z 06005KT 26/11 A2999 RMK A01 T02560105  RH  039%=      5-min Rain = 0
KCO1 151932Z 05005KT 26/10 A2999 RMK A01 T02550103  RH  038%=      5-min Rain = 0
KCO1 151933Z 06005KT 26/10 A2999 RMK A01 T02550103  RH  038%=      5-min Rain = 0
KCO1 151934Z 05005KT 26/10 A2999 RMK A01 T02550104  RH  039%=      5-min Rain = 0
KCO1 151935Z 06004KT 26/11 A2999 RMK A01 T02550105  RH  039%=      5-min Rain = 0
KCO1 151936Z 08004KT 26/10 A2999 RMK A01 T02550104  RH  039%=      5-min Rain = 0
KCO1 151937Z 08004KT 26/10 A2999 RMK A01 T02560102  RH  038%=      5-min Rain = 0
KCO1 151938Z 08004KT 26/10 A2999 RMK A01 T02570102  RH  038%=      5-min Rain = 0
KCO1 151939Z 07004KT 26/10 A2999 RMK A01 T02570100  RH  037%=      5-min Rain = 0
KCO1 151940Z 08004KT 26/10 A2999 RMK A01 T02590099  RH  037%=      5-min Rain = 0
KCO1 151941Z 09004KT 26/10 A2999 RMK A01 T02600099  RH  036%=      5-min Rain = 0
KCO1 151942Z 09003KT 26/10 A2998 RMK A01 T02620098  RH  035%=      5-min Rain = 0
KCO1 151943Z 08003KT 26/10 A2998 RMK A01 T02640098  RH  035%=      5-min Rain = 0
KCO1 151944Z 07002KT 27/10 A2998 RMK A01 T02650099  RH  035%=      5-min Rain = 0
KCO1 151945Z 04001KT 27/10 A2998 RMK A01 T02670099  RH  035%=      5-min Rain = 0
KCO1 151946Z 01002KT 27/10 A2998 RMK A01 T02700097  RH  034%=      5-min Rain = 0
KCO1 151947Z 35001KT 27/10 A2998 RMK A01 T02720097  RH  033%=      5-min Rain = 0
KCO1 151948Z 02001KT 28/10 A2998 RMK A01 T02750096  RH  033%=      5-min Rain = 0
KCO1 151949Z 03001KT 28/10 A2998 RMK A01 T02770095  RH  032%=      5-min Rain = 0
KCO1 151950Z 04002KT 28/10 A2998 RMK A01 T02790096  RH  032%=      5-min Rain = 0
KCO1 151951Z 02004KT 28/10 A2998 RMK A01 T02810096  RH  032%=      5-min Rain = 0
KCO1 151952Z 04005KT 28/10 A2998 RMK A01 T02800098  RH  032%=      5-min Rain = 0
KCO1 151953Z 05003KT 28/10 A2998 RMK A01 T02780097  RH  032%=      5-min Rain = 0
KCO1 151954Z 06005KT 28/10 A2998 RMK A01 T02780098  RH  032%=      5-min Rain = 0
KCO1 151955Z 04006KT 28/10 A2998 RMK A01 T02800098  RH  032%=      5-min Rain = 0
KCO1 151956Z 04003KT 28/10 A2998 RMK A01 T02800096  RH  032%=      5-min Rain = 0
KCO1 151957Z 05003KT 28/09 A2998 RMK A01 T02790094  RH  031%=      5-min Rain = 0
KCO1 151958Z 01003KT 28/09 A2998 RMK A01 T02790093  RH  031%=      5-min Rain = 0
KCO1 151959Z 35004KT 28/09 A2998 RMK A01 T02790092  RH  031%=      5-min Rain = 0
KCO1 152000Z 31003KT 28/09 A2997 RMK A01 T02780091  RH  031%=      5-min Rain = 0
KCO1 152001Z 32003KT 28/09 A2997 RMK A01 T02770088  RH  031%=      5-min Rain = 0
KCO1 152002Z 31003KT 28/09 A2997 RMK A01 T02760088  RH  031%=      5-min Rain = 0
KCO1 152003Z 25003KT 28/09 A2997 RMK A01 T02760086  RH  030%=      5-min Rain = 0
KCO1 152004Z 29002KT 28/08 A2997 RMK A01 T02760084  RH  030%=      5-min Rain = 0
KCO1 152005Z 29002KT 28/08 A2997 RMK A01 T02770082  RH  029%=      5-min Rain = 0
KCO1 152006Z 27002KT 28/08 A2997 RMK A01 T02780079  RH  029%=      5-min Rain = 0
KCO1 152007Z 26002KT 28/08 A2997 RMK A01 T02780079  RH  029%=      5-min Rain = 0
KCO1 152008Z 20002KT 28/08 A2997 RMK A01 T02790081  RH  029%=      5-min Rain = 0
KCO1 152009Z 21001KT 28/08 A2997 RMK A01 T02800082  RH  029%=      5-min Rain = 0
KCO1 152010Z 21001KT 28/08 A2997 RMK A01 T02810081  RH  028%=      5-min Rain = 0
KCO1 152011Z 28001KT 28/08 A2997 RMK A01 T02820077  RH  028%=      5-min Rain = 0
KCO1 152012Z 25002KT 28/08 A2997 RMK A01 T02820079  RH  028%=      5-min Rain = 0
KCO1 152013Z 24002KT 28/08 A2997 RMK A01 T02820079  RH  028%=      5-min Rain = 0
KCO1 152014Z 28001KT 28/08 A2997 RMK A01 T02810079  RH  028%=      5-min Rain = 0
KCO1 152015Z 28002KT 28/08 A2997 RMK A01 T02810079  RH  028%=      5-min Rain = 0
KCO1 152016Z 27003KT 28/08 A2997 RMK A01 T02810078  RH  028%=      5-min Rain = 0
KCO1 152017Z 25003KT 28/08 A2997 RMK A01 T02810076  RH  028%=      5-min Rain = 0
KCO1 152018Z 26006KT 28/07 A2997 RMK A01 T02810073  RH  027%=      5-min Rain = 0
KCO1 152019Z 26004KT 28/07 A2997 RMK A01 T02810069  RH  026%=      5-min Rain = 0
KCO1 152020Z 29004KT 28/07 A2997 RMK A01 T02820072  RH  027%=      5-min Rain = 0
KCO1 152021Z 27004KT 28/07 A2997 RMK A01 T02830071  RH  026%=      5-min Rain = 0
KCO1 152022Z 27005KT 28/07 A2997 RMK A01 T02840071  RH  026%=      5-min Rain = 0
KCO1 152023Z 28005KT 29/07 A2997 RMK A01 T02850071  RH  026%=      5-min Rain = 0
KCO1 152024Z 29006KT 29/07 A2997 RMK A01 T02850074  RH  027%=      5-min Rain = 0
KCO1 152025Z 27004KT 29/08 A2997 RMK A01 T02850075  RH  027%=      5-min Rain = 0
KCO1 152026Z 29004KT 29/08 A2997 RMK A01 T02850077  RH  027%=      5-min Rain = 0
KCO1 152027Z 29006KT 29/08 A2997 RMK A01 T02850075  RH  027%=      5-min Rain = 0
KCO1 152028Z 27004KT 28/07 A2997 RMK A01 T02830068  RH  026%=      5-min Rain = 0
KCO1 152029Z 27005KT 28/07 A2997 RMK A01 T02820069  RH  026%=      5-min Rain = 0
KCO1 152030Z 26006KT 28/07 A2997 RMK A01 T02810069  RH  026%=      5-min Rain = 0
KCO1 152031Z 28005KT 28/07 A2997 RMK A01 T02810071  RH  027%=      5-min Rain = 0
KCO1 152032Z 31005KT 28/08 A2996 RMK A01 T02820076  RH  027%=      5-min Rain = 0
KCO1 152033Z 32005KT 28/08 A2996 RMK A01 T02820076  RH  027%=      5-min Rain = 0
KCO1 152034Z 32004KT 28/08 A2996 RMK A01 T02800075  RH  027%=      5-min Rain = 0
KCO1 152035Z 31006KT 28/08 A2996 RMK A01 T02800075  RH  027%=      5-min Rain = 0
KCO1 152036Z 30006KT 28/07 A2996 RMK A01 T02800074  RH  027%=      5-min Rain = 0
KCO1 152037Z 29005KT 28/07 A2996 RMK A01 T02820073  RH  027%=      5-min Rain = 0
KCO1 152038Z 28004KT 28/07 A2996 RMK A01 T02840073  RH  027%=      5-min Rain = 0
KCO1 152039Z 32005KT 29/07 A2996 RMK A01 T02860073  RH  026%=      5-min Rain = 0
KCO1 152040Z 30006KT 29/07 A2996 RMK A01 T02870073  RH  026%=      5-min Rain = 0
KCO1 152041Z 30006KT 29/07 A2996 RMK A01 T02880073  RH  026%=      5-min Rain = 0
KCO1 152042Z 32005KT 29/07 A2996 RMK A01 T02880072  RH  026%=      5-min Rain = 0
KCO1 152043Z 32004KT 29/07 A2996 RMK A01 T02870073  RH  026%=      5-min Rain = 0
KCO1 152044Z 31008KT 29/08 A2996 RMK A01 T02870075  RH  026%=      5-min Rain = 0
KCO1 152045Z 32008KT 29/07 A2996 RMK A01 T02870073  RH  026%=      5-min Rain = 0
KCO1 152046Z 34007KT 29/07 A2996 RMK A01 T02860073  RH  026%=      5-min Rain = 0
KCO1 152047Z 34008KT 29/08 A2996 RMK A01 T02860075  RH  026%=      5-min Rain = 0
KCO1 152048Z 34008KT 29/07 A2996 RMK A01 T02860074  RH  026%=      5-min Rain = 0
KCO1 152049Z 34007KT 29/07 A2996 RMK A01 T02870074  RH  026%=      5-min Rain = 0
KCO1 152050Z 33005KT 29/07 A2996 RMK A01 T02860072  RH  026%=      5-min Rain = 0
KCO1 152051Z 32008KT 29/07 A2996 RMK A01 T02860072  RH  026%=      5-min Rain = 0
KCO1 152052Z 29009KT 29/07 A2996 RMK A01 T02890068  RH  025%=      5-min Rain = 0
KCO1 152053Z 30006KT 29/07 A2996 RMK A01 T02880069  RH  025%=      5-min Rain = 0
KCO1 152054Z 32007KT 29/07 A2996 RMK A01 T02890073  RH  026%=      5-min Rain = 0
KCO1 152055Z 33006KT 29/08 A2996 RMK A01 T02900076  RH  026%=      5-min Rain = 0
KCO1 152056Z 33006KT 29/08 A2996 RMK A01 T02900077  RH  026%=      5-min Rain = 0
KCO1 152057Z 32008KT 29/08 A2996 RMK A01 T02890076  RH  026%=      5-min Rain = 0
KCO1 152058Z 31008KT 29/07 A2996 RMK A01 T02890070  RH  025%=      5-min Rain = 0
KCO1 152059Z 29010KT 29/07 A2996 RMK A01 T02890067  RH  025%=      5-min Rain = 0
KCO1 152100Z 30007KT 29/06 A2996 RMK A01 T02890063  RH  024%=      5-min Rain = 0
KCO1 152101Z 34007KT 29/07 A2995 RMK A01 T02880069  RH  025%=      5-min Rain = 0
KCO1 152102Z 33004KT 29/07 A2995 RMK A01 T02870070  RH  025%=      5-min Rain = 0
KCO1 152103Z 33003KT 29/06 A2995 RMK A01 T02870064  RH  024%=      5-min Rain = 0
KCO1 152104Z 32004KT 29/06 A2995 RMK A01 T02880063  RH  024%=      5-min Rain = 0
KCO1 152105Z 29004KT 29/06 A2996 RMK A01 T02870062  RH  024%=      5-min Rain = 0
KCO1 152106Z 30007KT 29/06 A2995 RMK A01 T02870064  RH  025%=      5-min Rain = 0
KCO1 152107Z 29006KT 29/06 A2995 RMK A01 T02870062  RH  024%=      5-min Rain = 0
KCO1 152108Z 33006KT 29/06 A2995 RMK A01 T02870064  RH  024%=      5-min Rain = 0
KCO1 152109Z 32006KT 29/07 A2995 RMK A01 T02860065  RH  025%=      5-min Rain = 0
KCO1 152110Z 30006KT 29/07 A2995 RMK A01 T02850065  RH  025%=      5-min Rain = 0
KCO1 152111Z 32008KT 29/07 A2995 RMK A01 T02850066  RH  025%=      5-min Rain = 0
KCO1 152112Z 32008KT 29/07 A2995 RMK A01 T02850067  RH  025%=      5-min Rain = 0
KCO1 152113Z 31007KT 28/07 A2995 RMK A01 T02840066  RH  025%=      5-min Rain = 0
KCO1 152114Z 34006KT 28/07 A2995 RMK A01 T02830067  RH  025%=      5-min Rain = 0
KCO1 152115Z 33005KT 28/07 A2995 RMK A01 T02840067  RH  025%=      5-min Rain = 0
KCO1 152116Z 31004KT 28/07 A2995 RMK A01 T02830068  RH  026%=      5-min Rain = 0
KCO1 152117Z 32004KT 28/07 A2995 RMK A01 T02830068  RH  026%=      5-min Rain = 0
KCO1 152118Z 32005KT 28/07 A2995 RMK A01 T02840065  RH  025%=      5-min Rain = 0
KCO1 152119Z 33005KT 28/06 A2995 RMK A01 T02840064  RH  025%=      5-min Rain = 0
KCO1 152120Z 33004KT 28/07 A2995 RMK A01 T02840065  RH  025%=      5-min Rain = 0
KCO1 152121Z 32005KT 28/06 A2995 RMK A01 T02840064  RH  025%=      5-min Rain = 0
KCO1 152122Z 31006KT 28/06 A2995 RMK A01 T02840064  RH  025%=      5-min Rain = 0
KCO1 152123Z 31004KT 29/06 A2995 RMK A01 T02850063  RH  025%=      5-min Rain = 0
KCO1 152124Z 34004KT 29/07 A2994 RMK A01 T02850065  RH  025%=      5-min Rain = 0
KCO1 152125Z 34004KT 29/07 A2994 RMK A01 T02850067  RH  025%=      5-min Rain = 0
KCO1 152126Z 35004KT 29/07 A2994 RMK A01 T02860066  RH  025%=      5-min Rain = 0
KCO1 152127Z 36005KT 29/07 A2994 RMK A01 T02860067  RH  025%=      5-min Rain = 0
KCO1 152128Z 35006KT 29/07 A2994 RMK A01 T02870066  RH  025%=      5-min Rain = 0
KCO1 152129Z 35006KT 29/06 A2994 RMK A01 T02870064  RH  024%=      5-min Rain = 0
KCO1 152130Z 34005KT 29/06 A2994 RMK A01 T02870063  RH  024%=      5-min Rain = 0
KCO1 152131Z 35005KT 29/06 A2994 RMK A01 T02870064  RH  024%=      5-min Rain = 0
KCO1 152132Z 34005KT 29/06 A2994 RMK A01 T02880064  RH  024%=      5-min Rain = 0
KCO1 152133Z 34003KT 29/06 A2994 RMK A01 T02880063  RH  024%=      5-min Rain = 0
KCO1 152134Z 36001KT 29/06 A2994 RMK A01 T02880063  RH  024%=      5-min Rain = 0
KCO1 152135Z 01001KT 29/07 A2994 RMK A01 T02880065  RH  025%=      5-min Rain = 0
KCO1 152136Z 31003KT 29/06 A2994 RMK A01 T02890064  RH  024%=      5-min Rain = 0
KCO1 152137Z 32002KT 29/06 A2994 RMK A01 T02890061  RH  024%=      5-min Rain = 0
KCO1 152138Z 35004KT 29/06 A2994 RMK A01 T02890062  RH  024%=      5-min Rain = 0
KCO1 152139Z 35003KT 29/06 A2994 RMK A01 T02890060  RH  024%=      5-min Rain = 0
KCO1 152140Z 34005KT 29/06 A2994 RMK A01 T02890061  RH  024%=      5-min Rain = 0
KCO1 152141Z 32006KT 29/06 A2994 RMK A01 T02890061  RH  024%=      5-min Rain = 0
KCO1 152142Z 33007KT 29/06 A2994 RMK A01 T02890059  RH  023%=      5-min Rain = 0
KCO1 152143Z 32006KT 29/06 A2994 RMK A01 T02890060  RH  023%=      5-min Rain = 0
KCO1 152144Z 32004KT 29/06 A2994 RMK A01 T02890059  RH  023%=      5-min Rain = 0
KCO1 152145Z 30004KT 29/06 A2994 RMK A01 T02890060  RH  023%=      5-min Rain = 0
KCO1 152146Z 29006KT 29/06 A2994 RMK A01 T02890061  RH  024%=      5-min Rain = 0
KCO1 152147Z 30005KT 29/06 A2994 RMK A01 T02900060  RH  023%=      5-min Rain = 0
KCO1 152148Z 33003KT 29/06 A2994 RMK A01 T02900060  RH  023%=      5-min Rain = 0
KCO1 152149Z 34004KT 29/06 A2994 RMK A01 T02900060  RH  023%=      5-min Rain = 0
KCO1 152150Z 35004KT 29/06 A2994 RMK A01 T02900061  RH  024%=      5-min Rain = 0
KCO1 152151Z 32004KT 29/06 A2994 RMK A01 T02910063  RH  024%=      5-min Rain = 0
KCO1 152152Z 30004KT 29/06 A2994 RMK A01 T02920062  RH  023%=      5-min Rain = 0
KCO1 152153Z 29004KT 29/06 A2994 RMK A01 T02920061  RH  023%=      5-min Rain = 0
KCO1 152154Z 29005KT 29/06 A2994 RMK A01 T02930062  RH  023%=      5-min Rain = 0
KCO1 152155Z 29005KT 29/06 A2994 RMK A01 T02930062  RH  023%=      5-min Rain = 0
KCO1 152156Z 28013KT 29/06 A2994 RMK A01 T02940057  RH  022%=      5-min Rain = 0
KCO1 152157Z 28015KT 30/05 A2994 RMK A01 T02960052  RH  021%=      5-min Rain = 0
KCO1 152158Z 28015KT 30/05 A2994 RMK A01 T02980051  RH  021%=      5-min Rain = 0
KCO1 152159Z 27015KT 30/05 A2994 RMK A01 T02980050  RH  021%=      5-min Rain = 0
KCO1 152200Z 27016KT 30/05 A2994 RMK A01 T02990050  RH  021%=      5-min Rain = 0
KCO1 152201Z 27013KT 30/05 A2994 RMK A01 T02990050  RH  021%=      5-min Rain = 0
KCO1 152202Z 28013KT 30/05 A2994 RMK A01 T03000050  RH  021%=      5-min Rain = 0
KCO1 152203Z 28014KT 30/05 A2994 RMK A01 T03000050  RH  021%=      5-min Rain = 0
KCO1 152204Z 28014KT 30/05 A2994 RMK A01 T03000050  RH  021%=      5-min Rain = 0
KCO1 152205Z 27013KT 30/05 A2994 RMK A01 T03000049  RH  020%=      5-min Rain = 0
KCO1 152206Z 28011KT 30/05 A2994 RMK A01 T03000050  RH  021%=      5-min Rain = 0
KCO1 152207Z 28015KT 30/05 A2994 RMK A01 T03000050  RH  021%=      5-min Rain = 0
KCO1 152208Z 28011KT 30/05 A2994 RMK A01 T03000050  RH  021%=      5-min Rain = 0
KCO1 152209Z 28013KT 30/05 A2994 RMK A01 T03010050  RH  021%=      5-min Rain = 0
KCO1 152210Z 28014KT 30/05 A2994 RMK A01 T03010050  RH  020%=      5-min Rain = 0
KCO1 152211Z 29008KT 30/05 A2994 RMK A01 T03010051  RH  021%=      5-min Rain = 0
KCO1 152212Z 29012KT 30/05 A2994 RMK A01 T03010051  RH  021%=      5-min Rain = 0
KCO1 152213Z 29015KT 30/05 A2994 RMK A01 T03010050  RH  020%=      5-min Rain = 0
KCO1 152214Z 29014KT 30/05 A2993 RMK A01 T03000050  RH  021%=      5-min Rain = 0
KCO1 152215Z 29014KT 30/05 A2994 RMK A01 T02990049  RH  021%=      5-min Rain = 0
KCO1 152216Z 29015KT 30/05 A2993 RMK A01 T02980049  RH  021%=      5-min Rain = 0
KCO1 152217Z 29015KT 30/05 A2993 RMK A01 T02970049  RH  021%=      5-min Rain = 0
KCO1 152218Z 29012KT 30/05 A2994 RMK A01 T02960049  RH  021%=      5-min Rain = 0
KCO1 152219Z 29010KT 30/05 A2994 RMK A01 T02970050  RH  021%=      5-min Rain = 0
KCO1 152220Z 29010KT 30/05 A2994 RMK A01 T02970051  RH  021%=      5-min Rain = 0
KCO1 152221Z 29014KT 30/05 A2993 RMK A01 T02980050  RH  021%=      5-min Rain = 0
KCO1 152222Z 29014KT 30/05 A2993 RMK A01 T02990050  RH  021%=      5-min Rain = 0
KCO1 152223Z 29013KT 30/05 A2993 RMK A01 T02980050  RH  021%=      5-min Rain = 0
KCO1 152224Z 29014KT 30/05 A2994 RMK A01 T02980050  RH  021%=      5-min Rain = 0
KCO1 152225Z 27014KT 30/05 A2994 RMK A01 T02980050  RH  021%=      5-min Rain = 0
KCO1 152226Z 28015G21KT 30/05 A2993 RMK A01 T02980050  RH  021%=      5-min Rain = 0
KCO1 152227Z 28017KT 30/05 A2993 RMK A01 T02980049  RH  021%=      5-min Rain = 0
KCO1 152228Z 28019KT 30/05 A2993 RMK A01 T02980049  RH  021%=      5-min Rain = 0
KCO1 152229Z 28016KT 30/05 A2993 RMK A01 T02980049  RH  021%=      5-min Rain = 0
KCO1 152230Z 28016G21KT 30/05 A2993 RMK A01 T02980050  RH  021%=      5-min Rain = 0
KCO1 152231Z 28016KT 30/05 A2993 RMK A01 T02990050  RH  021%=      5-min Rain = 0
KCO1 152232Z 28018KT 30/05 A2993 RMK A01 T03000049  RH  021%=      5-min Rain = 0
KCO1 152233Z 28015KT 30/05 A2993 RMK A01 T03000050  RH  020%=      5-min Rain = 0
KCO1 152234Z 27014G19KT 30/05 A2993 RMK A01 T03010051  RH  021%=      5-min Rain = 0
KCO1 152235Z 27015KT 30/05 A2993 RMK A01 T03020051  RH  020%=      5-min Rain = 0
KCO1 152236Z 28014G19KT 30/05 A2993 RMK A01 T03010051  RH  021%=      5-min Rain = 0
KCO1 152237Z 27018KT 30/05 A2993 RMK A01 T03010050  RH  021%=      5-min Rain = 0
KCO1 152238Z 27015KT 30/05 A2993 RMK A01 T02990050  RH  021%=      5-min Rain = 0
KCO1 152239Z 27017KT 30/05 A2993 RMK A01 T02990050  RH  021%=      5-min Rain = 0
KCO1 152240Z 27017KT 30/05 A2993 RMK A01 T02980049  RH  021%=      5-min Rain = 0
KCO1 152241Z 27019KT 30/05 A2993 RMK A01 T02980049  RH  021%=      5-min Rain = 0
KCO1 152242Z 28018KT 30/05 A2993 RMK A01 T02980049  RH  021%=      5-min Rain = 0
KCO1 152243Z 27018KT 30/05 A2993 RMK A01 T02980049  RH  021%=      5-min Rain = 0
KCO1 152244Z 28017KT 30/05 A2993 RMK A01 T02970049  RH  021%=      5-min Rain = 0
KCO1 152245Z 27018KT 30/05 A2993 RMK A01 T02970049  RH  021%=      5-min Rain = 0
KCO1 152246Z 27017KT 30/05 A2993 RMK A01 T02970050  RH  021%=      5-min Rain = 0
KCO1 152247Z 28013G18KT 30/05 A2993 RMK A01 T02960050  RH  021%=      5-min Rain = 0
KCO1 152248Z 28016G22KT 30/05 A2993 RMK A01 T02960050  RH  021%=      5-min Rain = 0
KCO1 152249Z 28019KT 30/05 A2993 RMK A01 T02950050  RH  021%=      5-min Rain = 0
KCO1 152250Z 28019KT 29/05 A2993 RMK A01 T02940050  RH  021%=      5-min Rain = 0
KCO1 152251Z 28019KT 29/05 A2993 RMK A01 T02930049  RH  021%=      5-min Rain = 0
KCO1 152252Z 28018KT 29/05 A2993 RMK A01 T02930049  RH  021%=      5-min Rain = 0
KCO1 152253Z 28017KT 29/05 A2993 RMK A01 T02930050  RH  021%=      5-min Rain = 0
KCO1 152254Z 28014G19KT 29/05 A2993 RMK A01 T02920049  RH  021%=      5-min Rain = 0
KCO1 152255Z 27014G22KT 29/05 A2993 RMK A01 T02920050  RH  022%=      5-min Rain = 0
KCO1 152256Z 28018KT 29/05 A2993 RMK A01 T02910050  RH  022%=      5-min Rain = 0
KCO1 152257Z 28017KT 29/05 A2993 RMK A01 T02910050  RH  022%=      5-min Rain = 0
KCO1 152258Z 27017KT 29/05 A2994 RMK A01 T02910050  RH  022%=      5-min Rain = 0
KCO1 152259Z 28013KT 29/05 A2994 RMK A01 T02910050  RH  022%=      5-min Rain = 0
KCO1 152300Z 28016KT 29/05 A2994 RMK A01 T02910050  RH  022%=      5-min Rain = 0
KCO1 152301Z 27015KT 29/05 A2994 RMK A01 T02900050  RH  022%=      5-min Rain = 0
KCO1 152302Z 28017KT 29/05 A2994 RMK A01 T02910050  RH  022%=      5-min Rain = 0
KCO1 152303Z 28015KT 29/05 A2994 RMK A01 T02910050  RH  022%=      5-min Rain = 0
KCO1 152304Z 27015KT 29/05 A2994 RMK A01 T02900050  RH  022%=      5-min Rain = 0
KCO1 152305Z 28012KT 29/05 A2994 RMK A01 T02900050  RH  022%=      5-min Rain = 0
KCO1 152306Z 28011G17KT 29/05 A2994 RMK A01 T02900050  RH  022%=      5-min Rain = 0
KCO1 152307Z 28015KT 29/05 A2994 RMK A01 T02900050  RH  022%=      5-min Rain = 0
KCO1 152308Z 27012KT 29/05 A2994 RMK A01 T02900050  RH  022%=      5-min Rain = 0
KCO1 152309Z 27012G18KT 29/05 A2994 RMK A01 T02900050  RH  022%=      5-min Rain = 0
KCO1 152310Z 28012KT 29/05 A2994 RMK A01 T02900050  RH  022%=      5-min Rain = 0
KCO1 152311Z 28010KT 29/05 A2994 RMK A01 T02900050  RH  022%=      5-min Rain = 0
KCO1 152312Z 27011KT 29/05 A2994 RMK A01 T02900050  RH  022%=      5-min Rain = 0
KCO1 152313Z 28011KT 29/05 A2994 RMK A01 T02900050  RH  022%=      5-min Rain = 0
KCO1 152314Z 28010KT 29/05 A2994 RMK A01 T02900050  RH  022%=      5-min Rain = 0
KCO1 152315Z 28009KT 29/05 A2994 RMK A01 T02900051  RH  022%=      5-min Rain = 0
KCO1 152316Z 29009KT 29/05 A2994 RMK A01 T02900051  RH  022%=      5-min Rain = 0
KCO1 152317Z 28009KT 29/05 A2994 RMK A01 T02900051  RH  022%=      5-min Rain = 0
KCO1 152318Z 28011KT 29/05 A2994 RMK A01 T02900051  RH  022%=      5-min Rain = 0
KCO1 152319Z 27013KT 29/05 A2994 RMK A01 T02900051  RH  022%=      5-min Rain = 0
KCO1 152320Z 27013KT 29/05 A2994 RMK A01 T02900051  RH  022%=      5-min Rain = 0
KCO1 152321Z 28012KT 29/05 A2994 RMK A01 T02890050  RH  022%=      5-min Rain = 0
KCO1 152322Z 27013G20KT 29/05 A2994 RMK A01 T02900050  RH  022%=      5-min Rain = 0
KCO1 152323Z 28014KT 29/05 A2994 RMK A01 T02900050  RH  022%=      5-min Rain = 0
KCO1 152324Z 27015KT 29/05 A2994 RMK A01 T02900050  RH  022%=      5-min Rain = 0
KCO1 152325Z 27013G18KT 29/05 A2994 RMK A01 T02900050  RH  022%=      5-min Rain = 0
KCO1 152326Z 28014G20KT 29/05 A2994 RMK A01 T02910050  RH  022%=      5-min Rain = 0
KCO1 152327Z 27017KT 29/05 A2994 RMK A01 T02910050  RH  022%=      5-min Rain = 0
KCO1 152328Z 27015KT 29/05 A2994 RMK A01 T02910050  RH  022%=      5-min Rain = 0
KCO1 152329Z 27012KT 29/05 A2994 RMK A01 T02910050  RH  022%=      5-min Rain = 0
KCO1 152330Z 27014KT 29/05 A2994 RMK A01 T02910050  RH  022%=      5-min Rain = 0
KCO1 152331Z 27013KT 29/05 A2994 RMK A01 T02910050  RH  022%=      5-min Rain = 0
KCO1 152332Z 28015KT 29/05 A2994 RMK A01 T02910050  RH  022%=      5-min Rain = 0
KCO1 152333Z 28015KT 29/05 A2994 RMK A01 T02910050  RH  022%=      5-min Rain = 0
KCO1 152334Z 28015G20KT 29/05 A2994 RMK A01 T02910050  RH  022%=      5-min Rain = 0
KCO1 152335Z 27014KT 29/05 A2994 RMK A01 T02910050  RH  022%=      5-min Rain = 0
KCO1 152336Z 28012KT 29/05 A2994 RMK A01 T02910050  RH  022%=      5-min Rain = 0
KCO1 152337Z 28012KT 29/05 A2994 RMK A01 T02910050  RH  022%=      5-min Rain = 0
KCO1 152338Z 27013G18KT 29/05 A2994 RMK A01 T02910050  RH  022%=      5-min Rain = 0
KCO1 152339Z 28013G18KT 29/05 A2994 RMK A01 T02900050  RH  022%=      5-min Rain = 0
KCO1 152340Z 29015KT 29/05 A2994 RMK A01 T02900050  RH  022%=      5-min Rain = 0
KCO1 152341Z 28014KT 29/05 A2994 RMK A01 T02900050  RH  022%=      5-min Rain = 0
KCO1 152342Z 28014KT 29/05 A2994 RMK A01 T02900050  RH  022%=      5-min Rain = 0
KCO1 152343Z 28014KT 29/05 A2994 RMK A01 T02900050  RH  022%=      5-min Rain = 0
KCO1 152344Z 28014KT 29/05 A2994 RMK A01 T02900050  RH  022%=      5-min Rain = 0
KCO1 152345Z 28017KT 29/05 A2994 RMK A01 T02900050  RH  022%=      5-min Rain = 0
KCO1 152346Z 28015KT 29/05 A2994 RMK A01 T02900050  RH  022%=      5-min Rain = 0
KCO1 152347Z 28013KT 29/05 A2994 RMK A01 T02900050  RH  022%=      5-min Rain = 0
KCO1 152348Z 28013G18KT 29/05 A2994 RMK A01 T02900050  RH  022%=      5-min Rain = 0
KCO1 152349Z 28015KT 29/05 A2994 RMK A01 T02900050  RH  022%=      5-min Rain = 0
KCO1 152350Z 28014KT 29/05 A2994 RMK A01 T02900050  RH  022%=      5-min Rain = 0
KCO1 152351Z 27015KT 29/05 A2994 RMK A01 T02900051  RH  022%=      5-min Rain = 0
KCO1 152352Z 27015KT 29/05 A2994 RMK A01 T02900050  RH  022%=      5-min Rain = 0
KCO1 152353Z 28013KT 29/05 A2994 RMK A01 T02890050  RH  022%=      5-min Rain = 0
KCO1 152354Z 28015KT 29/05 A2994 RMK A01 T02890050  RH  022%=      5-min Rain = 0
KCO1 152355Z 28014KT 29/05 A2994 RMK A01 T02890050  RH  022%=      5-min Rain = 0
KCO1 152356Z 28017KT 29/05 A2994 RMK A01 T02890050  RH  022%=      5-min Rain = 0
KCO1 152357Z 28015KT 29/05 A2994 RMK A01 T02890050  RH  022%=      5-min Rain = 0
KCO1 152358Z 28021G26KT 29/05 A2994 RMK A01 T02890050  RH  022%=      5-min Rain = 0
KCO1 152359Z 28017KT 29/05 A2994 RMK A01 T02890049  RH  022%=      5-min Rain = 0
KCO1 160000Z 27017G22KT 29/05 A2994 RMK A01 T02900050  RH  022%=      5-min Rain = 0
KCO1 160001Z 28019KT 29/05 A2994 RMK A01 T02890050  RH  022%=      5-min Rain = 0
KCO1 160002Z 28018KT 29/05 A2994 RMK A01 T02890050  RH  022%=      5-min Rain = 0
KCO1 160003Z 27017KT 29/05 A2994 RMK A01 T02890050  RH  022%=      5-min Rain = 0
KCO1 160004Z 28018KT 29/05 A2994 RMK A01 T02890050  RH  022%=      5-min Rain = 0
KCO1 160005Z 28017G22KT 29/05 A2994 RMK A01 T02880050  RH  022%=      5-min Rain = 0
KCO1 160006Z 28021G26KT 29/05 A2994 RMK A01 T02880050  RH  022%=      5-min Rain = 0
KCO1 160007Z 28022KT 29/05 A2994 RMK A01 T02880050  RH  022%=      5-min Rain = 0
KCO1 160008Z 28019KT 29/05 A2994 RMK A01 T02880050  RH  022%=      5-min Rain = 0
KCO1 160009Z 28018KT 29/05 A2994 RMK A01 T02880050  RH  022%=      5-min Rain = 0
KCO1 160010Z 27021KT 29/05 A2994 RMK A01 T02870050  RH  022%=      5-min Rain = 0
KCO1 160011Z 27019G24KT 29/05 A2994 RMK A01 T02870050  RH  022%=      5-min Rain = 0
KCO1 160012Z 27017G22KT 29/05 A2994 RMK A01 T02870050  RH  022%=      5-min Rain = 0
KCO1 160013Z 27019KT 29/05 A2994 RMK A01 T02860050  RH  022%=      5-min Rain = 0
KCO1 160014Z 27018KT 29/05 A2994 RMK A01 T02860050  RH  022%=      5-min Rain = 0
KCO1 160015Z 27017KT 29/05 A2994 RMK A01 T02850050  RH  022%=      5-min Rain = 0
KCO1 160016Z 27017KT 28/05 A2995 RMK A01 T02840050  RH  023%=      5-min Rain = 0
KCO1 160017Z 27018KT 28/05 A2995 RMK A01 T02830050  RH  023%=      5-min Rain = 0
KCO1 160018Z 27018KT 28/05 A2995 RMK A01 T02830050  RH  023%=      5-min Rain = 0
KCO1 160019Z 28016KT 28/05 A2995 RMK A01 T02830050  RH  023%=      5-min Rain = 0
KCO1 160020Z 28014KT 28/05 A2995 RMK A01 T02830051  RH  023%=      5-min Rain = 0
KCO1 160021Z 28016KT 28/05 A2995 RMK A01 T02810051  RH  023%=      5-min Rain = 0
KCO1 160022Z 28018KT 28/05 A2995 RMK A01 T02800052  RH  023%=      5-min Rain = 0
KCO1 160023Z 28018KT 28/05 A2995 RMK A01 T02800053  RH  023%=      5-min Rain = 0
KCO1 160024Z 28019KT 28/05 A2995 RMK A01 T02800053  RH  024%=      5-min Rain = 0
KCO1 160025Z 28020KT 28/05 A2995 RMK A01 T02800053  RH  024%=      5-min Rain = 0
KCO1 160026Z 28019G25KT 28/05 A2995 RMK A01 T02800053  RH  024%=      5-min Rain = 0
KCO1 160027Z 28018KT 28/05 A2995 RMK A01 T02810054  RH  024%=      5-min Rain = 0
KCO1 160028Z 28019G25KT 28/05 A2995 RMK A01 T02800054  RH  024%=      5-min Rain = 0
KCO1 160029Z 28019KT 28/05 A2995 RMK A01 T02790053  RH  024%=      5-min Rain = 0
KCO1 160030Z 28019KT 28/05 A2995 RMK A01 T02790053  RH  024%=      5-min Rain = 0
KCO1 160031Z 28018KT 28/05 A2995 RMK A01 T02780053  RH  024%=      5-min Rain = 0
KCO1 160032Z 28018KT 28/05 A2995 RMK A01 T02770054  RH  024%=      5-min Rain = 0
KCO1 160033Z 28019KT 28/05 A2994 RMK A01 T02770053  RH  024%=      5-min Rain = 0
KCO1 160034Z 28019KT 28/05 A2995 RMK A01 T02770053  RH  024%=      5-min Rain = 0
KCO1 160035Z 28018KT 28/05 A2995 RMK A01 T02770054  RH  024%=      5-min Rain = 0
KCO1 160036Z 28016KT 28/05 A2995 RMK A01 T02770054  RH  024%=      5-min Rain = 0
KCO1 160037Z 28016G21KT 28/05 A2995 RMK A01 T02750053  RH  024%=      5-min Rain = 0
KCO1 160038Z 28017KT 28/05 A2995 RMK A01 T02750054  RH  024%=      5-min Rain = 0
KCO1 160039Z 28015G22KT 27/05 A2995 RMK A01 T02740054  RH  024%=      5-min Rain = 0
KCO1 160040Z 28016KT 27/05 A2995 RMK A01 T02740054  RH  025%=      5-min Rain = 0
KCO1 160041Z 28016KT 27/05 A2995 RMK A01 T02740054  RH  025%=      5-min Rain = 0
KCO1 160042Z 28016G21KT 27/05 A2995 RMK A01 T02730054  RH  025%=      5-min Rain = 0
KCO1 160043Z 29017KT 27/05 A2995 RMK A01 T02730054  RH  025%=      5-min Rain = 0
KCO1 160044Z 28016KT 27/05 A2995 RMK A01 T02730054  RH  025%=      5-min Rain = 0
KCO1 160045Z 28016KT 27/05 A2995 RMK A01 T02720054  RH  025%=      5-min Rain = 0
KCO1 160046Z 28017KT 27/05 A2995 RMK A01 T02710054  RH  025%=      5-min Rain = 0
KCO1 160047Z 28016KT 27/05 A2996 RMK A01 T02710054  RH  025%=      5-min Rain = 0
KCO1 160048Z 28015KT 27/05 A2996 RMK A01 T02710054  RH  025%=      5-min Rain = 0
KCO1 160049Z 28015G20KT 27/05 A2996 RMK A01 T02710054  RH  025%=      5-min Rain = 0
KCO1 160050Z 28016KT 27/05 A2996 RMK A01 T02700054  RH  025%=      5-min Rain = 0
KCO1 160051Z 28017KT 27/05 A2996 RMK A01 T02700054  RH  025%=      5-min Rain = 0
KCO1 160052Z 29017KT 27/05 A2996 RMK A01 T02700054  RH  025%=      5-min Rain = 0
KCO1 160053Z 28016KT 27/05 A2996 RMK A01 T02700054  RH  025%=      5-min Rain = 0
KCO1 160054Z 28016KT 27/05 A2996 RMK A01 T02700054  RH  025%=      5-min Rain = 0
KCO1 160055Z 28015KT 27/05 A2996 RMK A01 T02690054  RH  025%=      5-min Rain = 0
KCO1 160056Z 28016KT 27/05 A2996 RMK A01 T02690054  RH  025%=      5-min Rain = 0
KCO1 160057Z 28018KT 27/05 A2996 RMK A01 T02690054  RH  025%=      5-min Rain = 0
KCO1 160058Z 29017KT 27/05 A2996 RMK A01 T02690054  RH  025%=      5-min Rain = 0
KCO1 160059Z 29014KT 27/05 A2996 RMK A01 T02700054  RH  025%=      5-min Rain = 0
KCO1 160100Z 29014KT 27/05 A2997 RMK A01 T02690054  RH  025%=      5-min Rain = 0
KCO1 160101Z 29014KT 27/05 A2997 RMK A01 T02670054  RH  025%=      5-min Rain = 0
KCO1 160102Z 29014KT 27/05 A2997 RMK A01 T02660054  RH  026%=      5-min Rain = 0
KCO1 160103Z 29016KT 27/05 A2997 RMK A01 T02650054  RH  026%=      5-min Rain = 0
KCO1 160104Z 29015KT 27/06 A2997 RMK A01 T02660055  RH  026%=      5-min Rain = 0
KCO1 160105Z 29015G20KT 27/06 A2997 RMK A01 T02650055  RH  026%=      5-min Rain = 0
KCO1 160106Z 28014KT 27/06 A2997 RMK A01 T02650055  RH  026%=      5-min Rain = 0
KCO1 160107Z 29014KT 26/05 A2997 RMK A01 T02640054  RH  026%=      5-min Rain = 0
KCO1 160108Z 29013KT 26/05 A2997 RMK A01 T02640054  RH  026%=      5-min Rain = 0
KCO1 160109Z 29015KT 26/06 A2997 RMK A01 T02630055  RH  026%=      5-min Rain = 0
KCO1 160110Z 29014KT 26/05 A2997 RMK A01 T02630054  RH  026%=      5-min Rain = 0
KCO1 160111Z 29014KT 26/06 A2997 RMK A01 T02630055  RH  026%=      5-min Rain = 0
KCO1 160112Z 29012KT 26/06 A2997 RMK A01 T02620055  RH  026%=      5-min Rain = 0
KCO1 160113Z 29013KT 26/05 A2997 RMK A01 T02620054  RH  026%=      5-min Rain = 0
KCO1 160114Z 29014KT 26/05 A2997 RMK A01 T02610054  RH  027%=      5-min Rain = 0
KCO1 160115Z 29013KT 26/06 A2998 RMK A01 T02610055  RH  027%=      5-min Rain = 0
KCO1 160116Z 29013KT 26/05 A2998 RMK A01 T02610054  RH  027%=      5-min Rain = 0
KCO1 160117Z 29011KT 26/05 A2998 RMK A01 T02600054  RH  027%=      5-min Rain = 0
KCO1 160118Z 29012KT 26/05 A2998 RMK A01 T02600054  RH  027%=      5-min Rain = 0
KCO1 160119Z 29013G18KT 26/06 A2998 RMK A01 T02600055  RH  027%=      5-min Rain = 0
KCO1 160120Z 29012KT 26/06 A2998 RMK A01 T02590055  RH  027%=      5-min Rain = 0
KCO1 160121Z 29013KT 26/05 A2998 RMK A01 T02580054  RH  027%=      5-min Rain = 0
KCO1 160122Z 29012KT 26/06 A2998 RMK A01 T02580055  RH  027%=      5-min Rain = 0
KCO1 160123Z 29014KT 26/06 A2998 RMK A01 T02580055  RH  027%=      5-min Rain = 0
KCO1 160124Z 29013KT 26/06 A2998 RMK A01 T02580055  RH  027%=      5-min Rain = 0
KCO1 160125Z 29013KT 26/06 A2998 RMK A01 T02580055  RH  027%=      5-min Rain = 0
KCO1 160126Z 29012KT 26/06 A2998 RMK A01 T02580055  RH  027%=      5-min Rain = 0
KCO1 160127Z 30012KT 26/06 A2998 RMK A01 T02570055  RH  027%=      5-min Rain = 0
KCO1 160128Z 29013KT 26/06 A2998 RMK A01 T02570055  RH  027%=      5-min Rain = 0
KCO1 160129Z 30012KT 26/06 A2998 RMK A01 T02570056  RH  027%=      5-min Rain = 0
KCO1 160130Z 30013G18KT 26/06 A2998 RMK A01 T02570056  RH  028%=      5-min Rain = 0
KCO1 160131Z 30011KT 26/06 A2998 RMK A01 T02570055  RH  027%=      5-min Rain = 0
KCO1 160132Z 29013KT 26/06 A2998 RMK A01 T02560055  RH  028%=      5-min Rain = 0
KCO1 160133Z 30014KT 26/06 A2998 RMK A01 T02560056  RH  028%=      5-min Rain = 0
KCO1 160134Z 30013KT 26/06 A2998 RMK A01 T02560056  RH  028%=      5-min Rain = 0
KCO1 160135Z 30012KT 26/06 A2998 RMK A01 T02550055  RH  028%=      5-min Rain = 0
KCO1 160136Z 30013KT 25/06 A2998 RMK A01 T02540055  RH  028%=      5-min Rain = 0
KCO1 160137Z 30012KT 25/06 A2998 RMK A01 T02540055  RH  028%=      5-min Rain = 0
KCO1 160138Z 30012KT 25/06 A2998 RMK A01 T02540055  RH  028%=      5-min Rain = 0
KCO1 160139Z 30013KT 25/06 A2998 RMK A01 T02530055  RH  028%=      5-min Rain = 0
KCO1 160140Z 30011KT 25/06 A2998 RMK A01 T02520055  RH  028%=      5-min Rain = 0
KCO1 160141Z 30012KT 25/06 A2998 RMK A01 T02510055  RH  028%=      5-min Rain = 0
KCO1 160142Z 30011KT 25/06 A2998 RMK A01 T02510055  RH  028%=      5-min Rain = 0
KCO1 160143Z 30011KT 25/06 A2998 RMK A01 T02500055  RH  029%=      5-min Rain = 0
KCO1 160144Z 30011KT 25/06 A2998 RMK A01 T02490055  RH  029%=      5-min Rain = 0
KCO1 160145Z 30012KT 25/06 A2998 RMK A01 T02480055  RH  029%=      5-min Rain = 0
KCO1 160146Z 30011KT 25/06 A2998 RMK A01 T02480055  RH  029%=      5-min Rain = 0
KCO1 160147Z 30011KT 25/06 A2998 RMK A01 T02470055  RH  029%=      5-min Rain = 0
KCO1 160148Z 30010KT 25/06 A2999 RMK A01 T02470055  RH  029%=      5-min Rain = 0
KCO1 160149Z 30012KT 25/06 A2999 RMK A01 T02470055  RH  029%=      5-min Rain = 0
KCO1 160150Z 30010KT 25/06 A2999 RMK A01 T02470055  RH  029%=      5-min Rain = 0
KCO1 160151Z 30012KT 25/06 A2999 RMK A01 T02470055  RH  029%=      5-min Rain = 0
KCO1 160152Z 30012KT 25/06 A2999 RMK A01 T02470055  RH  029%=      5-min Rain = 0
KCO1 160153Z 30012KT 25/06 A2999 RMK A01 T02470055  RH  029%=      5-min Rain = 0
KCO1 160154Z 30011KT 25/06 A2999 RMK A01 T02470055  RH  029%=      5-min Rain = 0
KCO1 160155Z 29011KT 25/06 A2999 RMK A01 T02470055  RH  029%=      5-min Rain = 0
KCO1 160156Z 29012KT 25/06 A2999 RMK A01 T02460055  RH  029%=      5-min Rain = 0
KCO1 160157Z 29010KT 25/06 A2999 RMK A01 T02460055  RH  029%=      5-min Rain = 0
KCO1 160158Z 30010KT 25/06 A2999 RMK A01 T02470055  RH  029%=      5-min Rain = 0
KCO1 160159Z 30012KT 25/06 A2999 RMK A01 T02460055  RH  029%=      5-min Rain = 0
KCO1 160200Z 30011KT 25/06 A2999 RMK A01 T02460055  RH  029%=      5-min Rain = 0
KCO1 160201Z 29012KT 25/06 A2999 RMK A01 T02460055  RH  029%=      5-min Rain = 0
KCO1 160202Z 29012KT 25/06 A2999 RMK A01 T02450055  RH  029%=      5-min Rain = 0
KCO1 160203Z 29011KT 25/06 A2999 RMK A01 T02450055  RH  029%=      5-min Rain = 0
KCO1 160204Z 29012KT 25/06 A2999 RMK A01 T02450055  RH  029%=      5-min Rain = 0
KCO1 160205Z 29012KT 25/06 A2999 RMK A01 T02450055  RH  030%=      5-min Rain = 0
KCO1 160206Z 30012KT 25/06 A2999 RMK A01 T02450055  RH  029%=      5-min Rain = 0
KCO1 160207Z 30012KT 25/06 A2999 RMK A01 T02450056  RH  029%=      5-min Rain = 0
KCO1 160208Z 30011KT 25/06 A2999 RMK A01 T02450055  RH  030%=      5-min Rain = 0
KCO1 160209Z 30011KT 24/06 A2999 RMK A01 T02440055  RH  030%=      5-min Rain = 0
KCO1 160210Z 30011KT 24/06 A2999 RMK A01 T02440055  RH  030%=      5-min Rain = 0
KCO1 160211Z 29012KT 24/06 A2999 RMK A01 T02440055  RH  030%=      5-min Rain = 0
KCO1 160212Z 29012KT 24/06 A2999 RMK A01 T02430055  RH  030%=      5-min Rain = 0
KCO1 160213Z 29013KT 24/06 A2999 RMK A01 T02430055  RH  030%=      5-min Rain = 0
KCO1 160214Z 30014KT 24/06 A2999 RMK A01 T02440055  RH  030%=      5-min Rain = 0
KCO1 160215Z 30013KT 24/06 A2999 RMK A01 T02440055  RH  030%=      5-min Rain = 0
KCO1 160216Z 29015G22KT 24/06 A30 RMK A01 T02440055  RH  030%=      5-min Rain = 0
KCO1 160217Z 30018G23KT 25/06 A30 RMK A01 T02450056  RH  030%=      5-min Rain = 0
KCO1 160218Z 30020KT 25/06 A30 RMK A01 T02450056  RH  030%=      5-min Rain = 0
KCO1 160219Z 30018G23KT 24/06 A30 RMK A01 T02440056  RH  030%=      5-min Rain = 0
KCO1 160220Z 31023KT 24/06 A30 RMK A01 T02410056  RH  030%=      5-min Rain = 0
KCO1 160221Z 30020KT 24/06 A30 RMK A01 T02390058  RH  031%=      5-min Rain = 0
KCO1 160222Z 31021G27KT 24/06 A30 RMK A01 T02370059  RH  032%=      5-min Rain = 0
KCO1 160223Z 31020KT 24/06 A30 RMK A01 T02350061  RH  032%=      5-min Rain = 0
KCO1 160224Z 31021KT 23/06 A30 RMK A01 T02340061  RH  033%=      5-min Rain = 0
KCO1 160225Z 31017G23KT 23/06 A3001 RMK A01 T02320062  RH  033%=      5-min Rain = 0
KCO1 160226Z 31018KT 23/06 A3001 RMK A01 T02310064  RH  034%=      5-min Rain = 0
KCO1 160227Z 31018G23KT 23/07 A3001 RMK A01 T02300065  RH  034%=      5-min Rain = 0
KCO1 160228Z 31020KT 23/07 A3001 RMK A01 T02290067  RH  035%=      5-min Rain = 0
KCO1 160229Z 31018G24KT 23/07 A3001 RMK A01 T02280067  RH  035%=      5-min Rain = 0
KCO1 160230Z 30018G25KT 23/07 A3001 RMK A01 T02270068  RH  036%=      5-min Rain = 0
KCO1 160231Z 31019G24KT 23/07 A3001 RMK A01 T02260068  RH  036%=      5-min Rain = 0
KCO1 160232Z 31016KT 23/07 A3001 RMK A01 T02260069  RH  036%=      5-min Rain = 0
KCO1 160233Z 31019G24KT 23/07 A3001 RMK A01 T02250069  RH  037%=      5-min Rain = 0
KCO1 160234Z 31018G23KT 22/07 A3001 RMK A01 T02240070  RH  037%=      5-min Rain = 0
KCO1 160235Z 31019G25KT 22/07 A3001 RMK A01 T02240070  RH  037%=      5-min Rain = 0
KCO1 160236Z 30017KT 22/07 A3002 RMK A01 T02230070  RH  037%=      5-min Rain = 0
KCO1 160237Z 30016KT 22/07 A3002 RMK A01 T02230070  RH  037%=      5-min Rain = 0
KCO1 160238Z 30017G23KT 22/07 A3002 RMK A01 T02210070  RH  038%=      5-min Rain = 0
KCO1 160239Z 30016KT 22/07 A3002 RMK A01 T02210071  RH  038%=      5-min Rain = 0
KCO1 160240Z 30017G22KT 22/07 A3002 RMK A01 T02200071  RH  038%=      5-min Rain = 0
KCO1 160241Z 30016KT 22/07 A3002 RMK A01 T02200071  RH  038%=      5-min Rain = 0
KCO1 160242Z 30015KT 22/07 A3002 RMK A01 T02190070  RH  038%=      5-min Rain = 0
KCO1 160243Z 30016KT 22/07 A3002 RMK A01 T02190071  RH  038%=      5-min Rain = 0
KCO1 160244Z 30016KT 22/07 A3002 RMK A01 T02180071  RH  039%=      5-min Rain = 0
KCO1 160245Z 30016G21KT 22/07 A3002 RMK A01 T02170071  RH  039%=      5-min Rain = 0
KCO1 160246Z 30016KT 22/07 A3002 RMK A01 T02170071  RH  039%=      5-min Rain = 0
KCO1 160247Z 30016KT 22/07 A3002 RMK A01 T02170071  RH  039%=      5-min Rain = 0
KCO1 160248Z 31012KT 22/07 A3002 RMK A01 T02170071  RH  039%=      5-min Rain = 0
KCO1 160249Z 30015KT 22/07 A3002 RMK A01 T02160071  RH  039%=      5-min Rain = 0
KCO1 160250Z 30014KT 22/07 A3002 RMK A01 T02150072  RH  039%=      5-min Rain = 0
KCO1 160251Z 30017KT 22/07 A3002 RMK A01 T02150072  RH  040%=      5-min Rain = 0
KCO1 160252Z 30017KT 22/07 A3002 RMK A01 T02150072  RH  040%=      5-min Rain = 0
KCO1 160253Z 31016KT 21/07 A3002 RMK A01 T02140072  RH  040%=      5-min Rain = 0
KCO1 160254Z 30016KT 21/07 A3002 RMK A01 T02140072  RH  040%=      5-min Rain = 0
KCO1 160255Z 31015KT 21/07 A3002 RMK A01 T02130072  RH  040%=      5-min Rain = 0
KCO1 160256Z 30016KT 21/07 A3002 RMK A01 T02130073  RH  040%=      5-min Rain = 0
KCO1 160257Z 31014KT 21/07 A3002 RMK A01 T02120073  RH  041%=      5-min Rain = 0
KCO1 160258Z 31017KT 21/07 A3002 RMK A01 T02120073  RH  041%=      5-min Rain = 0
KCO1 160259Z 30016G21KT 21/07 A3002 RMK A01 T02110074  RH  041%=      5-min Rain = 0
KCO1 160300Z 30015KT 21/07 A3002 RMK A01 T02110074  RH  041%=      5-min Rain = 0
KCO1 160301Z 31016KT 21/08 A3002 RMK A01 T02110075  RH  041%=      5-min Rain = 0
KCO1 160302Z 30016KT 21/08 A3002 RMK A01 T02110076  RH  042%=      5-min Rain = 0
KCO1 160303Z 30017KT 21/08 A3002 RMK A01 T02100077  RH  042%=      5-min Rain = 0
KCO1 160304Z 30016KT 21/08 A3002 RMK A01 T02100077  RH  042%=      5-min Rain = 0
KCO1 160305Z 30014KT 21/08 A3002 RMK A01 T02100078  RH  042%=      5-min Rain = 0
KCO1 160306Z 30015KT 21/08 A3003 RMK A01 T02090078  RH  043%=      5-min Rain = 0
KCO1 160307Z 30016KT 21/08 A3002 RMK A01 T02090079  RH  043%=      5-min Rain = 0
KCO1 160308Z 30015KT 21/08 A3003 RMK A01 T02090079  RH  043%=      5-min Rain = 0
KCO1 160309Z 30017KT 21/08 A3003 RMK A01 T02080080  RH  043%=      5-min Rain = 0
KCO1 160310Z 30015KT 21/08 A3002 RMK A01 T02080080  RH  044%=      5-min Rain = 0
KCO1 160311Z 30013G19KT 21/08 A3003 RMK A01 T02080081  RH  044%=      5-min Rain = 0
KCO1 160312Z 30014KT 21/08 A3002 RMK A01 T02080080  RH  044%=      5-min Rain = 0
KCO1 160313Z 30012KT 21/08 A3003 RMK A01 T02070081  RH  044%=      5-min Rain = 0
KCO1 160314Z 30013KT 21/08 A3003 RMK A01 T02070081  RH  044%=      5-min Rain = 0
KCO1 160315Z 30014G19KT 21/08 A3003 RMK A01 T02060081  RH  045%=      5-min Rain = 0
KCO1 160316Z 30014KT 21/08 A3003 RMK A01 T02050081  RH  045%=      5-min Rain = 0
KCO1 160317Z 30013KT 21/08 A3003 RMK A01 T02050081  RH  045%=      5-min Rain = 0
KCO1 160318Z 30012KT 21/08 A3003 RMK A01 T02050081  RH  045%=      5-min Rain = 0
KCO1 160319Z 30014KT 20/08 A3003 RMK A01 T02040082  RH  045%=      5-min Rain = 0
KCO1 160320Z 30015KT 20/08 A3003 RMK A01 T02040082  RH  045%=      5-min Rain = 0
KCO1 160321Z 30013KT 20/08 A3003 RMK A01 T02040082  RH  045%=      5-min Rain = 0
KCO1 160322Z 30015KT 20/08 A3003 RMK A01 T02040083  RH  046%=      5-min Rain = 0
KCO1 160323Z 30013KT 20/08 A3003 RMK A01 T02040083  RH  046%=      5-min Rain = 0
KCO1 160324Z 30014KT 20/08 A3003 RMK A01 T02030083  RH  046%=      5-min Rain = 0
KCO1 160325Z 30013KT 20/08 A3003 RMK A01 T02030083  RH  046%=      5-min Rain = 0
KCO1 160326Z 30014KT 20/08 A3003 RMK A01 T02030084  RH  046%=      5-min Rain = 0
KCO1 160327Z 30016KT 20/08 A3003 RMK A01 T02020084  RH  046%=      5-min Rain = 0
KCO1 160328Z 30016KT 20/08 A3003 RMK A01 T02020084  RH  047%=      5-min Rain = 0
KCO1 160329Z 30014KT 20/09 A3003 RMK A01 T02020085  RH  047%=      5-min Rain = 0
KCO1 160330Z 30012KT 20/08 A3003 RMK A01 T02020084  RH  047%=      5-min Rain = 0
KCO1 160331Z 30013KT 20/09 A3003 RMK A01 T02010085  RH  047%=      5-min Rain = 0
KCO1 160332Z 30015KT 20/09 A3003 RMK A01 T02010085  RH  047%=      5-min Rain = 0
KCO1 160333Z 30013KT 20/09 A3003 RMK A01 T02010085  RH  047%=      5-min Rain = 0
KCO1 160334Z 30014KT 20/09 A3003 RMK A01 T02010086  RH  047%=      5-min Rain = 0
KCO1 160335Z 30015KT 20/09 A3003 RMK A01 T02000086  RH  048%=      5-min Rain = 0
KCO1 160336Z 30012KT 20/09 A3003 RMK A01 T02000086  RH  048%=      5-min Rain = 0
KCO1 160337Z 30011KT 20/09 A3003 RMK A01 T02000086  RH  048%=      5-min Rain = 0
KCO1 160338Z 30011KT 20/09 A3003 RMK A01 T01990085  RH  048%=      5-min Rain = 0
KCO1 160339Z 30012KT 20/09 A3003 RMK A01 T01980085  RH  048%=      5-min Rain = 0
KCO1 160340Z 30010KT 20/09 A3004 RMK A01 T01980086  RH  048%=      5-min Rain = 0
KCO1 160341Z 30012KT 20/09 A3004 RMK A01 T01970085  RH  048%=      5-min Rain = 0
KCO1 160342Z 30012KT 20/09 A3004 RMK A01 T01970086  RH  049%=      5-min Rain = 0
KCO1 160343Z 30014KT 20/09 A3004 RMK A01 T01970086  RH  049%=      5-min Rain = 0
KCO1 160344Z 30012KT 20/09 A3004 RMK A01 T01970086  RH  049%=      5-min Rain = 0
KCO1 160345Z 30012KT 20/09 A3004 RMK A01 T01970086  RH  049%=      5-min Rain = 0
KCO1 160346Z 30012G17KT 20/09 A3004 RMK A01 T01970086  RH  049%=      5-min Rain = 0
KCO1 160347Z 30014KT 20/09 A3004 RMK A01 T01960086  RH  049%=      5-min Rain = 0
KCO1 160348Z 30012G17KT 20/09 A3004 RMK A01 T01960087  RH  049%=      5-min Rain = 0
KCO1 160349Z 30013KT 20/09 A3004 RMK A01 T01960087  RH  049%=      5-min Rain = 0
KCO1 160350Z 30013KT 20/09 A3004 RMK A01 T01960088  RH  049%=      5-min Rain = 0
KCO1 160351Z 30013KT 20/09 A3004 RMK A01 T01960087  RH  049%=      5-min Rain = 0
KCO1 160352Z 30011KT 20/09 A3004 RMK A01 T01960087  RH  049%=      5-min Rain = 0
KCO1 160353Z 30012KT 20/09 A3005 RMK A01 T01950087  RH  050%=      5-min Rain = 0
KCO1 160354Z 30013KT 19/09 A3005 RMK A01 T01940087  RH  050%=      5-min Rain = 0
KCO1 160355Z 31012KT 19/09 A3005 RMK A01 T01940088  RH  050%=      5-min Rain = 0
KCO1 160356Z 30011KT 19/09 A3005 RMK A01 T01940088  RH  050%=      5-min Rain = 0
KCO1 160357Z 30013KT 19/09 A3005 RMK A01 T01940088  RH  050%=      5-min Rain = 0
KCO1 160358Z 30012KT 19/09 A3005 RMK A01 T01940088  RH  050%=      5-min Rain = 0
KCO1 160359Z 30012KT 19/09 A3005 RMK A01 T01940089  RH  051%=      5-min Rain = 0
KCO1 160400Z 30010KT 19/09 A3005 RMK A01 T01930088  RH  051%=      5-min Rain = 0
KCO1 160401Z 30012KT 19/09 A3005 RMK A01 T01930088  RH  051%=      5-min Rain = 0
KCO1 160402Z 30010KT 19/09 A3005 RMK A01 T01920088  RH  051%=      5-min Rain = 0
KCO1 160403Z 30011KT 19/09 A3005 RMK A01 T01920088  RH  051%=      5-min Rain = 0
KCO1 160404Z 30009KT 19/09 A3005 RMK A01 T01920088  RH  051%=      5-min Rain = 0
KCO1 160405Z 30011KT 19/09 A3005 RMK A01 T01910088  RH  051%=      5-min Rain = 0
KCO1 160406Z 29009KT 19/09 A3005 RMK A01 T01910088  RH  051%=      5-min Rain = 0
KCO1 160407Z 30010KT 19/09 A3005 RMK A01 T01910088  RH  051%=      5-min Rain = 0
KCO1 160408Z 30010KT 19/09 A3005 RMK A01 T01900088  RH  052%=      5-min Rain = 0
KCO1 160409Z 30009KT 19/09 A3005 RMK A01 T01900089  RH  052%=      5-min Rain = 0
KCO1 160410Z 30010KT 19/09 A3005 RMK A01 T01900089  RH  052%=      5-min Rain = 0
KCO1 160411Z 29010KT 19/09 A3006 RMK A01 T01890088  RH  052%=      5-min Rain = 0
KCO1 160412Z 29009KT 19/09 A3006 RMK A01 T01890089  RH  052%=      5-min Rain = 0
KCO1 160413Z 29009KT 19/09 A3006 RMK A01 T01890089  RH  052%=      5-min Rain = 0
KCO1 160414Z 29010KT 19/09 A3006 RMK A01 T01890089  RH  052%=      5-min Rain = 0
KCO1 160415Z 29009KT 19/09 A3006 RMK A01 T01890089  RH  052%=      5-min Rain = 0
KCO1 160416Z 29010KT 19/09 A3006 RMK A01 T01890089  RH  052%=      5-min Rain = 0
KCO1 160417Z 29009KT 19/09 A3006 RMK A01 T01880089  RH  052%=      5-min Rain = 0
KCO1 160418Z 29010KT 19/09 A3006 RMK A01 T01880089  RH  053%=      5-min Rain = 0
KCO1 160419Z 29010KT 19/09 A3006 RMK A01 T01880089  RH  053%=      5-min Rain = 0
KCO1 160420Z 29010KT 19/09 A3006 RMK A01 T01870089  RH  053%=      5-min Rain = 0
KCO1 160421Z 29010KT 19/09 A3006 RMK A01 T01870089  RH  053%=      5-min Rain = 0
KCO1 160422Z 29009KT 19/09 A3006 RMK A01 T01870089  RH  053%=      5-min Rain = 0
KCO1 160423Z 29009KT 19/09 A3006 RMK A01 T01860089  RH  053%=      5-min Rain = 0
KCO1 160424Z 29009KT 19/09 A3006 RMK A01 T01850088  RH  053%=      5-min Rain = 0
KCO1 160425Z 29009KT 19/09 A3006 RMK A01 T01850089  RH  053%=      5-min Rain = 0
KCO1 160426Z 29010KT 19/09 A3006 RMK A01 T01850088  RH  053%=      5-min Rain = 0
KCO1 160427Z 28009KT 19/09 A3006 RMK A01 T01850089  RH  054%=      5-min Rain = 0
KCO1 160428Z 28010KT 18/09 A3006 RMK A01 T01840089  RH  054%=      5-min Rain = 0
KCO1 160429Z 28010KT 19/09 A3006 RMK A01 T01850090  RH  054%=      5-min Rain = 0
KCO1 160430Z 28009KT 18/09 A3006 RMK A01 T01840089  RH  054%=      5-min Rain = 0
KCO1 160431Z 28009KT 18/09 A3006 RMK A01 T01840089  RH  054%=      5-min Rain = 0
KCO1 160432Z 28009KT 18/09 A3006 RMK A01 T01840089  RH  054%=      5-min Rain = 0
KCO1 160433Z 28008KT 19/09 A3007 RMK A01 T01850090  RH  054%=      5-min Rain = 0
KCO1 160434Z 28008KT 18/09 A3007 RMK A01 T01840089  RH  054%=      5-min Rain = 0
KCO1 160435Z 28007KT 18/09 A3007 RMK A01 T01840089  RH  054%=      5-min Rain = 0
KCO1 160436Z 28008KT 18/09 A3007 RMK A01 T01830089  RH  054%=      5-min Rain = 0
KCO1 160437Z 28009KT 18/09 A3007 RMK A01 T01830088  RH  054%=      5-min Rain = 0
KCO1 160438Z 28006KT 18/09 A3007 RMK A01 T01820088  RH  054%=      5-min Rain = 0
KCO1 160439Z 29007KT 18/09 A3007 RMK A01 T01820088  RH  054%=      5-min Rain = 0
KCO1 160440Z 28006KT 18/09 A3007 RMK A01 T01820088  RH  054%=      5-min Rain = 0
KCO1 160441Z 28006KT 18/09 A3007 RMK A01 T01820088  RH  054%=      5-min Rain = 0
KCO1 160442Z 29006KT 18/09 A3007 RMK A01 T01810088  RH  054%=      5-min Rain = 0
KCO1 160443Z 28005KT 18/09 A3007 RMK A01 T01810088  RH  055%=      5-min Rain = 0
KCO1 160444Z 28005KT 18/09 A3008 RMK A01 T01810088  RH  055%=      5-min Rain = 0
KCO1 160445Z 28005KT 18/09 A3008 RMK A01 T01810088  RH  055%=      5-min Rain = 0
KCO1 160446Z 28005KT 18/09 A3008 RMK A01 T01800088  RH  055%=      5-min Rain = 0
KCO1 160447Z 28005KT 18/09 A3008 RMK A01 T01800088  RH  055%=      5-min Rain = 0
KCO1 160448Z 28005KT 18/09 A3008 RMK A01 T01790088  RH  055%=      5-min Rain = 0
KCO1 160449Z 28005KT 18/09 A3008 RMK A01 T01790088  RH  055%=      5-min Rain = 0
KCO1 160450Z 28004KT 18/09 A3008 RMK A01 T01790088  RH  055%=      5-min Rain = 0
KCO1 160451Z 28004KT 18/09 A3008 RMK A01 T01790087  RH  055%=      5-min Rain = 0
KCO1 160452Z 28004KT 18/09 A3008 RMK A01 T01780087  RH  055%=      5-min Rain = 0
KCO1 160453Z 27003KT 18/09 A3008 RMK A01 T01780087  RH  055%=      5-min Rain = 0
KCO1 160454Z 27003KT 18/09 A3008 RMK A01 T01780088  RH  055%=      5-min Rain = 0
KCO1 160455Z 27003KT 18/09 A3008 RMK A01 T01770087  RH  056%=      5-min Rain = 0
KCO1 160456Z 27003KT 18/09 A3008 RMK A01 T01770088  RH  056%=      5-min Rain = 0
KCO1 160457Z 27004KT 18/09 A3009 RMK A01 T01770088  RH  056%=      5-min Rain = 0
KCO1 160458Z 27004KT 18/09 A3009 RMK A01 T01770088  RH  056%=      5-min Rain = 0
KCO1 160459Z 27003KT 18/09 A3009 RMK A01 T01770088  RH  056%=      5-min Rain = 0
KCO1 160500Z 27003KT 18/09 A3009 RMK A01 T01760088  RH  056%=      5-min Rain = 0
KCO1 160501Z 27003KT 18/09 A3009 RMK A01 T01770088  RH  056%=      5-min Rain = 0
KCO1 160502Z 27003KT 18/09 A3009 RMK A01 T01760088  RH  056%=      5-min Rain = 0
KCO1 160503Z 28003KT 18/09 A3009 RMK A01 T01770088  RH  056%=      5-min Rain = 0
KCO1 160504Z 28003KT 18/09 A3009 RMK A01 T01760087  RH  056%=      5-min Rain = 0
KCO1 160505Z 29003KT 18/09 A3009 RMK A01 T01760087  RH  056%=      5-min Rain = 0
KCO1 160506Z 29003KT 18/09 A3009 RMK A01 T01760088  RH  056%=      5-min Rain = 0
KCO1 160507Z 29002KT 18/09 A3009 RMK A01 T01760088  RH  056%=      5-min Rain = 0
KCO1 160508Z 29002KT 18/09 A3009 RMK A01 T01760088  RH  056%=      5-min Rain = 0
KCO1 160509Z 30002KT 18/09 A3009 RMK A01 T01760088  RH  056%=      5-min Rain = 0
KCO1 160510Z 31001KT 18/09 A3009 RMK A01 T01750088  RH  057%=      5-min Rain = 0
KCO1 160511Z 31001KT 18/09 A3009 RMK A01 T01750088  RH  057%=      5-min Rain = 0
KCO1 160512Z 30001KT 18/09 A3009 RMK A01 T01750088  RH  057%=      5-min Rain = 0
KCO1 160513Z 30001KT 17/09 A3009 RMK A01 T01740088  RH  057%=      5-min Rain = 0
KCO1 160514Z 30000KT 17/09 A3009 RMK A01 T01730088  RH  057%=      5-min Rain = 0
KCO1 160515Z 00000KT 17/09 A3009 RMK A01 T01730088  RH  057%=      5-min Rain = 0
KCO1 160516Z 00000KT 17/09 A3009 RMK A01 T01730089  RH  057%=      5-min Rain = 0
KCO1 160517Z 00000KT 17/09 A3009 RMK A01 T01740088  RH  057%=      5-min Rain = 0
KCO1 160518Z 31000KT 17/09 A3009 RMK A01 T01740088  RH  057%=      5-min Rain = 0
KCO1 160519Z 00000KT 17/09 A3009 RMK A01 T01740087  RH  057%=      5-min Rain = 0
KCO1 160520Z 11001KT 17/08 A3009 RMK A01 T01710083  RH  056%=      5-min Rain = 0
KCO1 160521Z 11002KT 17/08 A3009 RMK A01 T01680081  RH  057%=      5-min Rain = 0
KCO1 160522Z 11003KT 17/08 A3009 RMK A01 T01650081  RH  057%=      5-min Rain = 0
KCO1 160523Z 12004KT 16/08 A3009 RMK A01 T01630082  RH  058%=      5-min Rain = 0
KCO1 160524Z 12004KT 16/08 A3009 RMK A01 T01620081  RH  059%=      5-min Rain = 0
KCO1 160525Z 11004KT 16/08 A3009 RMK A01 T01610082  RH  059%=      5-min Rain = 0
KCO1 160526Z 12004KT 16/08 A3009 RMK A01 T01610081  RH  059%=      5-min Rain = 0
KCO1 160527Z 13003KT 16/08 A3009 RMK A01 T01600081  RH  059%=      5-min Rain = 0
KCO1 160528Z 13003KT 16/08 A3009 RMK A01 T01590080  RH  059%=      5-min Rain = 0
KCO1 160529Z 13004KT 16/08 A3009 RMK A01 T01580081  RH  060%=      5-min Rain = 0
KCO1 160530Z 13005KT 16/08 A3009 RMK A01 T01580080  RH  059%=      5-min Rain = 0
KCO1 160531Z 13004KT 16/08 A3009 RMK A01 T01570078  RH  059%=      5-min Rain = 0
KCO1 160532Z 14004KT 16/08 A3009 RMK A01 T01560078  RH  060%=      5-min Rain = 0
KCO1 160533Z 13005KT 16/08 A301 RMK A01 T01560078  RH  060%=      5-min Rain = 0
KCO1 160534Z 13005KT 16/08 A301 RMK A01 T01550078  RH  060%=      5-min Rain = 0
KCO1 160535Z 14005KT 16/08 A301 RMK A01 T01550078  RH  060%=      5-min Rain = 0
KCO1 160536Z 14005KT 16/08 A301 RMK A01 T01550079  RH  061%=      5-min Rain = 0
KCO1 160537Z 14005KT 16/08 A301 RMK A01 T01560081  RH  061%=      5-min Rain = 0
KCO1 160538Z 14005KT 16/08 A301 RMK A01 T01570082  RH  061%=      5-min Rain = 0
KCO1 160539Z 15004KT 16/08 A301 RMK A01 T01580082  RH  060%=      5-min Rain = 0
KCO1 160540Z 15005KT 16/08 A301 RMK A01 T01600084  RH  061%=      5-min Rain = 0
KCO1 160541Z 16004KT 16/09 A301 RMK A01 T01620085  RH  060%=      5-min Rain = 0
KCO1 160542Z 15004KT 16/09 A301 RMK A01 T01630085  RH  060%=      5-min Rain = 0
KCO1 160543Z 16004KT 16/09 A301 RMK A01 T01640085  RH  060%=      5-min Rain = 0
KCO1 160544Z 19002KT 16/09 A301 RMK A01 T01640085  RH  059%=      5-min Rain = 0
KCO1 160545Z 23002KT 17/09 A301 RMK A01 T01650085  RH  059%=      5-min Rain = 0
KCO1 160546Z 21003KT 17/09 A301 RMK A01 T01660085  RH  059%=      5-min Rain = 0
KCO1 160547Z 20003KT 17/09 A301 RMK A01 T01670085  RH  059%=      5-min Rain = 0
KCO1 160548Z 21003KT 17/09 A301 RMK A01 T01680085  RH  058%=      5-min Rain = 0
KCO1 160549Z 20004KT 17/09 A301 RMK A01 T01690085  RH  058%=      5-min Rain = 0
KCO1 160550Z 21004KT 17/09 A301 RMK A01 T01700087  RH  058%=      5-min Rain = 0
KCO1 160551Z 21004KT 17/09 A301 RMK A01 T01730090  RH  058%=      5-min Rain = 0
KCO1 160552Z 22003KT 18/09 A301 RMK A01 T01750088  RH  056%=      5-min Rain = 0
KCO1 160553Z 22004KT 18/09 A301 RMK A01 T01750086  RH  056%=      5-min Rain = 0
KCO1 160554Z 22005KT 17/09 A301 RMK A01 T01740086  RH  056%=      5-min Rain = 0
KCO1 160555Z 24005KT 17/09 A301 RMK A01 T01740087  RH  057%=      5-min Rain = 0
KCO1 160556Z 24005KT 17/09 A301 RMK A01 T01730089  RH  058%=      5-min Rain = 0
KCO1 160557Z 23005KT 17/09 A301 RMK A01 T01730089  RH  058%=      5-min Rain = 0
KCO1 160558Z 24005KT 18/09 A301 RMK A01 T01750091  RH  058%=      5-min Rain = 0
KCO1 160559Z 25005KT 18/09 A301 RMK A01 T01770091  RH  057%=      5-min Rain = 0

Page generated in 0.1194 seconds.